<?xml version="1.0" encoding="UTF-8" standalone="no" ?>
<gpx xmlns="http://www.topografix.com/GPX/1/1" xmlns:xsi="http://www.w3.org/2001/XMLSchema-instance" xsi:schemaLocation="http://www.topografix.com/GPX/1/1 http://www.topografix.com/GPX/1/1/gpx.xsd" version="1.1" creator="VisuGPX - https://www.visugpx.com">
  <metadata>
    <name>2025-04-17-46-St Matré </name>
    <desc><![CDATA[Randonnée de 11 km pour environ 160 m de denivelé positif. Un joli circuit entre hameaux et cultures, pas de difficulté mais de belles maisons à voir avec leurs petites curiosités à rechercher et des paysages de campagne ]]></desc>
  </metadata>
  <trk>
    <name><![CDATA[St Matré 17-04-25]]></name>
    <extensions>
      <line xmlns="http://www.topografix.com/GPX/gpx_style/0/2">
        <color>0000FF</color>
        <width>4</width>
      </line>
    </extensions>
    <trkseg>
      <trkpt lat="44.39984" lon="1.12102">
        <ele>239.02</ele>
        <time>2025-03-07T12:59:53Z</time>
      </trkpt>
      <trkpt lat="44.39984" lon="1.12103">
        <ele>238.54</ele>
        <time>2025-03-07T12:59:54Z</time>
      </trkpt>
      <trkpt lat="44.39992" lon="1.12109">
        <ele>239.51</ele>
        <time>2025-03-07T13:00:02Z</time>
      </trkpt>
      <trkpt lat="44.39999" lon="1.12117">
        <ele>238.06</ele>
        <time>2025-03-07T13:00:06Z</time>
      </trkpt>
      <trkpt lat="44.40001" lon="1.12115">
        <ele>238.54</ele>
        <time>2025-03-07T13:00:17Z</time>
      </trkpt>
      <trkpt lat="44.39991" lon="1.12114">
        <ele>237.1</ele>
        <time>2025-03-07T13:00:32Z</time>
      </trkpt>
      <trkpt lat="44.3999" lon="1.12116">
        <ele>239.02</ele>
        <time>2025-03-07T13:00:35Z</time>
      </trkpt>
      <trkpt lat="44.39986" lon="1.12119">
        <ele>239.02</ele>
        <time>2025-03-07T13:00:50Z</time>
      </trkpt>
      <trkpt lat="44.39986" lon="1.12116">
        <ele>239.02</ele>
        <time>2025-03-07T13:01:01Z</time>
      </trkpt>
      <trkpt lat="44.3999" lon="1.12113">
        <ele>238.06</ele>
        <time>2025-03-07T13:01:06Z</time>
      </trkpt>
      <trkpt lat="44.39992" lon="1.12113">
        <ele>239.99</ele>
        <time>2025-03-07T13:01:09Z</time>
      </trkpt>
      <trkpt lat="44.39995" lon="1.12128">
        <ele>239.99</ele>
        <time>2025-03-07T13:01:25Z</time>
      </trkpt>
      <trkpt lat="44.39995" lon="1.12141">
        <ele>240.47</ele>
        <time>2025-03-07T13:01:36Z</time>
      </trkpt>
      <trkpt lat="44.39997" lon="1.12151">
        <ele>241.43</ele>
        <time>2025-03-07T13:01:52Z</time>
      </trkpt>
      <trkpt lat="44.39999" lon="1.12157">
        <ele>240.47</ele>
        <time>2025-03-07T13:01:57Z</time>
      </trkpt>
      <trkpt lat="44.40005" lon="1.12165">
        <ele>241.91</ele>
        <time>2025-03-07T13:02:07Z</time>
      </trkpt>
      <trkpt lat="44.40007" lon="1.12167">
        <ele>241.91</ele>
        <time>2025-03-07T13:02:10Z</time>
      </trkpt>
      <trkpt lat="44.40009" lon="1.12169">
        <ele>241.91</ele>
        <time>2025-03-07T13:02:12Z</time>
      </trkpt>
      <trkpt lat="44.40011" lon="1.1217">
        <ele>241.91</ele>
        <time>2025-03-07T13:02:14Z</time>
      </trkpt>
      <trkpt lat="44.40016" lon="1.12173">
        <ele>242.87</ele>
        <time>2025-03-07T13:02:19Z</time>
      </trkpt>
      <trkpt lat="44.40022" lon="1.12178">
        <ele>237.1</ele>
        <time>2025-03-07T13:02:28Z</time>
      </trkpt>
      <trkpt lat="44.40023" lon="1.12178">
        <ele>240.47</ele>
        <time>2025-03-07T13:02:29Z</time>
      </trkpt>
      <trkpt lat="44.40024" lon="1.1218">
        <ele>243.83</ele>
        <time>2025-03-07T13:02:32Z</time>
      </trkpt>
      <trkpt lat="44.40031" lon="1.12188">
        <ele>242.87</ele>
        <time>2025-03-07T13:02:42Z</time>
      </trkpt>
      <trkpt lat="44.40041" lon="1.12204">
        <ele>240.95</ele>
        <time>2025-03-07T13:02:58Z</time>
      </trkpt>
      <trkpt lat="44.4005" lon="1.12221">
        <ele>240.47</ele>
        <time>2025-03-07T13:03:12Z</time>
      </trkpt>
      <trkpt lat="44.40052" lon="1.12221">
        <ele>240.47</ele>
        <time>2025-03-07T13:03:22Z</time>
      </trkpt>
      <trkpt lat="44.40053" lon="1.12221">
        <ele>239.99</ele>
        <time>2025-03-07T13:03:43Z</time>
      </trkpt>
      <trkpt lat="44.40053" lon="1.1222">
        <ele>239.99</ele>
        <time>2025-03-07T13:03:46Z</time>
      </trkpt>
      <trkpt lat="44.40059" lon="1.12234">
        <ele>240.47</ele>
        <time>2025-03-07T13:04:01Z</time>
      </trkpt>
      <trkpt lat="44.40066" lon="1.12247">
        <ele>240.47</ele>
        <time>2025-03-07T13:04:16Z</time>
      </trkpt>
      <trkpt lat="44.40067" lon="1.12248">
        <ele>240.47</ele>
        <time>2025-03-07T13:04:25Z</time>
      </trkpt>
      <trkpt lat="44.40071" lon="1.12253">
        <ele>240.47</ele>
        <time>2025-03-07T13:04:30Z</time>
      </trkpt>
      <trkpt lat="44.40081" lon="1.12266">
        <ele>241.91</ele>
        <time>2025-03-07T13:04:42Z</time>
      </trkpt>
      <trkpt lat="44.40084" lon="1.12272">
        <ele>242.39</ele>
        <time>2025-03-07T13:04:56Z</time>
      </trkpt>
      <trkpt lat="44.4009" lon="1.12279">
        <ele>242.87</ele>
        <time>2025-03-07T13:05:09Z</time>
      </trkpt>
      <trkpt lat="44.40097" lon="1.12293">
        <ele>242.87</ele>
        <time>2025-03-07T13:05:22Z</time>
      </trkpt>
      <trkpt lat="44.40099" lon="1.123">
        <ele>243.83</ele>
        <time>2025-03-07T13:05:27Z</time>
      </trkpt>
      <trkpt lat="44.40106" lon="1.12309">
        <ele>244.31</ele>
        <time>2025-03-07T13:05:43Z</time>
      </trkpt>
      <trkpt lat="44.40106" lon="1.12306">
        <ele>244.31</ele>
        <time>2025-03-07T13:05:56Z</time>
      </trkpt>
      <trkpt lat="44.40106" lon="1.12308">
        <ele>244.31</ele>
        <time>2025-03-07T13:05:58Z</time>
      </trkpt>
      <trkpt lat="44.40106" lon="1.1231">
        <ele>244.79</ele>
        <time>2025-03-07T13:06:00Z</time>
      </trkpt>
      <trkpt lat="44.40116" lon="1.12335">
        <ele>245.75</ele>
        <time>2025-03-07T13:06:17Z</time>
      </trkpt>
      <trkpt lat="44.40129" lon="1.12359">
        <ele>246.23</ele>
        <time>2025-03-07T13:06:35Z</time>
      </trkpt>
      <trkpt lat="44.40142" lon="1.12384">
        <ele>247.2</ele>
        <time>2025-03-07T13:06:53Z</time>
      </trkpt>
      <trkpt lat="44.40146" lon="1.12392">
        <ele>248.16</ele>
        <time>2025-03-07T13:07:00Z</time>
      </trkpt>
      <trkpt lat="44.4015" lon="1.12399">
        <ele>248.16</ele>
        <time>2025-03-07T13:07:11Z</time>
      </trkpt>
      <trkpt lat="44.40161" lon="1.12425">
        <ele>249.12</ele>
        <time>2025-03-07T13:07:29Z</time>
      </trkpt>
      <trkpt lat="44.40169" lon="1.12446">
        <ele>249.6</ele>
        <time>2025-03-07T13:07:45Z</time>
      </trkpt>
      <trkpt lat="44.40173" lon="1.1247">
        <ele>249.6</ele>
        <time>2025-03-07T13:08:01Z</time>
      </trkpt>
      <trkpt lat="44.40172" lon="1.12496">
        <ele>250.56</ele>
        <time>2025-03-07T13:08:18Z</time>
      </trkpt>
      <trkpt lat="44.40169" lon="1.12521">
        <ele>251.04</ele>
        <time>2025-03-07T13:08:34Z</time>
      </trkpt>
      <trkpt lat="44.40168" lon="1.12529">
        <ele>249.12</ele>
        <time>2025-03-07T13:08:39Z</time>
      </trkpt>
      <trkpt lat="44.40164" lon="1.12556">
        <ele>249.12</ele>
        <time>2025-03-07T13:08:56Z</time>
      </trkpt>
      <trkpt lat="44.40164" lon="1.12558">
        <ele>250.56</ele>
        <time>2025-03-07T13:08:59Z</time>
      </trkpt>
      <trkpt lat="44.40162" lon="1.12565">
        <ele>249.12</ele>
        <time>2025-03-07T13:09:05Z</time>
      </trkpt>
      <trkpt lat="44.40159" lon="1.12578">
        <ele>249.12</ele>
        <time>2025-03-07T13:09:18Z</time>
      </trkpt>
      <trkpt lat="44.40154" lon="1.12601">
        <ele>251.04</ele>
        <time>2025-03-07T13:09:35Z</time>
      </trkpt>
      <trkpt lat="44.40152" lon="1.12606">
        <ele>251.04</ele>
        <time>2025-03-07T13:09:39Z</time>
      </trkpt>
      <trkpt lat="44.40148" lon="1.12628">
        <ele>251.04</ele>
        <time>2025-03-07T13:09:55Z</time>
      </trkpt>
      <trkpt lat="44.40146" lon="1.12636">
        <ele>251.04</ele>
        <time>2025-03-07T13:10:02Z</time>
      </trkpt>
      <trkpt lat="44.40144" lon="1.12657">
        <ele>250.56</ele>
        <time>2025-03-07T13:10:16Z</time>
      </trkpt>
      <trkpt lat="44.40146" lon="1.12677">
        <ele>250.08</ele>
        <time>2025-03-07T13:10:29Z</time>
      </trkpt>
      <trkpt lat="44.40152" lon="1.12703">
        <ele>250.08</ele>
        <time>2025-03-07T13:10:46Z</time>
      </trkpt>
      <trkpt lat="44.40157" lon="1.12717">
        <ele>250.56</ele>
        <time>2025-03-07T13:10:56Z</time>
      </trkpt>
      <trkpt lat="44.40158" lon="1.12719">
        <ele>250.56</ele>
        <time>2025-03-07T13:10:58Z</time>
      </trkpt>
      <trkpt lat="44.40159" lon="1.12725">
        <ele>250.56</ele>
        <time>2025-03-07T13:11:02Z</time>
      </trkpt>
      <trkpt lat="44.4017" lon="1.12749">
        <ele>249.12</ele>
        <time>2025-03-07T13:11:19Z</time>
      </trkpt>
      <trkpt lat="44.40183" lon="1.12771">
        <ele>248.64</ele>
        <time>2025-03-07T13:11:38Z</time>
      </trkpt>
      <trkpt lat="44.40195" lon="1.1279">
        <ele>247.68</ele>
        <time>2025-03-07T13:11:54Z</time>
      </trkpt>
      <trkpt lat="44.40207" lon="1.1281">
        <ele>247.2</ele>
        <time>2025-03-07T13:12:11Z</time>
      </trkpt>
      <trkpt lat="44.40219" lon="1.12829">
        <ele>247.2</ele>
        <time>2025-03-07T13:12:27Z</time>
      </trkpt>
      <trkpt lat="44.4022" lon="1.1283">
        <ele>247.2</ele>
        <time>2025-03-07T13:12:28Z</time>
      </trkpt>
      <trkpt lat="44.40232" lon="1.12851">
        <ele>247.68</ele>
        <time>2025-03-07T13:12:45Z</time>
      </trkpt>
      <trkpt lat="44.40246" lon="1.12872">
        <ele>248.16</ele>
        <time>2025-03-07T13:13:03Z</time>
      </trkpt>
      <trkpt lat="44.40257" lon="1.12889">
        <ele>248.64</ele>
        <time>2025-03-07T13:13:18Z</time>
      </trkpt>
      <trkpt lat="44.40269" lon="1.12909">
        <ele>249.12</ele>
        <time>2025-03-07T13:13:36Z</time>
      </trkpt>
      <trkpt lat="44.4028" lon="1.12927">
        <ele>251.04</ele>
        <time>2025-03-07T13:13:53Z</time>
      </trkpt>
      <trkpt lat="44.4029" lon="1.12945">
        <ele>252.48</ele>
        <time>2025-03-07T13:14:09Z</time>
      </trkpt>
      <trkpt lat="44.40304" lon="1.12967">
        <ele>250.08</ele>
        <time>2025-03-07T13:14:28Z</time>
      </trkpt>
      <trkpt lat="44.40315" lon="1.12982">
        <ele>249.6</ele>
        <time>2025-03-07T13:14:44Z</time>
      </trkpt>
      <trkpt lat="44.40328" lon="1.12998">
        <ele>248.64</ele>
        <time>2025-03-07T13:15:00Z</time>
      </trkpt>
      <trkpt lat="44.40341" lon="1.13014">
        <ele>248.64</ele>
        <time>2025-03-07T13:15:17Z</time>
      </trkpt>
      <trkpt lat="44.40342" lon="1.13016">
        <ele>248.64</ele>
        <time>2025-03-07T13:15:19Z</time>
      </trkpt>
      <trkpt lat="44.40343" lon="1.13018">
        <ele>248.64</ele>
        <time>2025-03-07T13:15:21Z</time>
      </trkpt>
      <trkpt lat="44.40352" lon="1.13027">
        <ele>249.6</ele>
        <time>2025-03-07T13:15:31Z</time>
      </trkpt>
      <trkpt lat="44.40365" lon="1.13043">
        <ele>247.68</ele>
        <time>2025-03-07T13:15:47Z</time>
      </trkpt>
      <trkpt lat="44.40377" lon="1.1306">
        <ele>247.68</ele>
        <time>2025-03-07T13:16:03Z</time>
      </trkpt>
      <trkpt lat="44.40389" lon="1.13078">
        <ele>247.68</ele>
        <time>2025-03-07T13:16:20Z</time>
      </trkpt>
      <trkpt lat="44.40402" lon="1.13097">
        <ele>247.68</ele>
        <time>2025-03-07T13:16:38Z</time>
      </trkpt>
      <trkpt lat="44.40418" lon="1.13113">
        <ele>247.68</ele>
        <time>2025-03-07T13:16:58Z</time>
      </trkpt>
      <trkpt lat="44.40428" lon="1.13117">
        <ele>248.64</ele>
        <time>2025-03-07T13:17:08Z</time>
      </trkpt>
      <trkpt lat="44.40445" lon="1.13124">
        <ele>247.68</ele>
        <time>2025-03-07T13:17:25Z</time>
      </trkpt>
      <trkpt lat="44.40462" lon="1.13133">
        <ele>246.23</ele>
        <time>2025-03-07T13:17:42Z</time>
      </trkpt>
      <trkpt lat="44.40466" lon="1.1314">
        <ele>246.23</ele>
        <time>2025-03-07T13:17:49Z</time>
      </trkpt>
      <trkpt lat="44.40466" lon="1.13152">
        <ele>244.79</ele>
        <time>2025-03-07T13:17:58Z</time>
      </trkpt>
      <trkpt lat="44.40461" lon="1.13174">
        <ele>242.87</ele>
        <time>2025-03-07T13:18:15Z</time>
      </trkpt>
      <trkpt lat="44.40464" lon="1.13185">
        <ele>241.91</ele>
        <time>2025-03-07T13:18:23Z</time>
      </trkpt>
      <trkpt lat="44.40465" lon="1.13188">
        <ele>241.91</ele>
        <time>2025-03-07T13:18:26Z</time>
      </trkpt>
      <trkpt lat="44.40467" lon="1.13192">
        <ele>241.43</ele>
        <time>2025-03-07T13:18:29Z</time>
      </trkpt>
      <trkpt lat="44.40478" lon="1.13198">
        <ele>241.43</ele>
        <time>2025-03-07T13:18:45Z</time>
      </trkpt>
      <trkpt lat="44.40489" lon="1.13193">
        <ele>239.99</ele>
        <time>2025-03-07T13:19:02Z</time>
      </trkpt>
      <trkpt lat="44.40504" lon="1.13185">
        <ele>238.54</ele>
        <time>2025-03-07T13:19:20Z</time>
      </trkpt>
      <trkpt lat="44.40517" lon="1.13177">
        <ele>237.1</ele>
        <time>2025-03-07T13:19:36Z</time>
      </trkpt>
      <trkpt lat="44.4053" lon="1.13168">
        <ele>236.62</ele>
        <time>2025-03-07T13:19:52Z</time>
      </trkpt>
      <trkpt lat="44.40542" lon="1.1316">
        <ele>234.7</ele>
        <time>2025-03-07T13:20:08Z</time>
      </trkpt>
      <trkpt lat="44.40552" lon="1.13155">
        <ele>233.26</ele>
        <time>2025-03-07T13:20:22Z</time>
      </trkpt>
      <trkpt lat="44.40563" lon="1.13149">
        <ele>232.78</ele>
        <time>2025-03-07T13:20:35Z</time>
      </trkpt>
      <trkpt lat="44.40564" lon="1.13148">
        <ele>228.93</ele>
        <time>2025-03-07T13:20:37Z</time>
      </trkpt>
      <trkpt lat="44.40565" lon="1.13147">
        <ele>234.22</ele>
        <time>2025-03-07T13:20:38Z</time>
      </trkpt>
      <trkpt lat="44.40566" lon="1.13147">
        <ele>234.22</ele>
        <time>2025-03-07T13:20:39Z</time>
      </trkpt>
      <trkpt lat="44.40569" lon="1.13145">
        <ele>232.78</ele>
        <time>2025-03-07T13:20:43Z</time>
      </trkpt>
      <trkpt lat="44.4058" lon="1.13131">
        <ele>230.85</ele>
        <time>2025-03-07T13:20:59Z</time>
      </trkpt>
      <trkpt lat="44.40592" lon="1.13117">
        <ele>230.85</ele>
        <time>2025-03-07T13:21:17Z</time>
      </trkpt>
      <trkpt lat="44.406" lon="1.13109">
        <ele>229.41</ele>
        <time>2025-03-07T13:21:30Z</time>
      </trkpt>
      <trkpt lat="44.40611" lon="1.13098">
        <ele>227.97</ele>
        <time>2025-03-07T13:21:45Z</time>
      </trkpt>
      <trkpt lat="44.40623" lon="1.13085">
        <ele>227.01</ele>
        <time>2025-03-07T13:22:03Z</time>
      </trkpt>
      <trkpt lat="44.40635" lon="1.13071">
        <ele>225.57</ele>
        <time>2025-03-07T13:22:20Z</time>
      </trkpt>
      <trkpt lat="44.40647" lon="1.13065">
        <ele>224.61</ele>
        <time>2025-03-07T13:22:34Z</time>
      </trkpt>
      <trkpt lat="44.40658" lon="1.13061">
        <ele>223.16</ele>
        <time>2025-03-07T13:22:49Z</time>
      </trkpt>
      <trkpt lat="44.4067" lon="1.13061">
        <ele>221.24</ele>
        <time>2025-03-07T13:23:03Z</time>
      </trkpt>
      <trkpt lat="44.40681" lon="1.13064">
        <ele>220.76</ele>
        <time>2025-03-07T13:23:16Z</time>
      </trkpt>
      <trkpt lat="44.40698" lon="1.13068">
        <ele>219.32</ele>
        <time>2025-03-07T13:23:33Z</time>
      </trkpt>
      <trkpt lat="44.40696" lon="1.13066">
        <ele>219.32</ele>
        <time>2025-03-07T13:23:45Z</time>
      </trkpt>
      <trkpt lat="44.40693" lon="1.13069">
        <ele>219.32</ele>
        <time>2025-03-07T13:24:05Z</time>
      </trkpt>
      <trkpt lat="44.40692" lon="1.1307">
        <ele>219.32</ele>
        <time>2025-03-07T13:24:36Z</time>
      </trkpt>
      <trkpt lat="44.40709" lon="1.1307">
        <ele>217.88</ele>
        <time>2025-03-07T13:24:50Z</time>
      </trkpt>
      <trkpt lat="44.40732" lon="1.13065">
        <ele>216.43</ele>
        <time>2025-03-07T13:25:06Z</time>
      </trkpt>
      <trkpt lat="44.40759" lon="1.13057">
        <ele>214.99</ele>
        <time>2025-03-07T13:25:25Z</time>
      </trkpt>
      <trkpt lat="44.40768" lon="1.13056">
        <ele>214.51</ele>
        <time>2025-03-07T13:25:32Z</time>
      </trkpt>
      <trkpt lat="44.40792" lon="1.13054">
        <ele>211.63</ele>
        <time>2025-03-07T13:25:48Z</time>
      </trkpt>
      <trkpt lat="44.40814" lon="1.13041">
        <ele>209.7</ele>
        <time>2025-03-07T13:26:05Z</time>
      </trkpt>
      <trkpt lat="44.40832" lon="1.13022">
        <ele>208.74</ele>
        <time>2025-03-07T13:26:21Z</time>
      </trkpt>
      <trkpt lat="44.40843" lon="1.13002">
        <ele>206.82</ele>
        <time>2025-03-07T13:26:33Z</time>
      </trkpt>
      <trkpt lat="44.40858" lon="1.12973">
        <ele>205.38</ele>
        <time>2025-03-07T13:26:52Z</time>
      </trkpt>
      <trkpt lat="44.40871" lon="1.1295">
        <ele>204.42</ele>
        <time>2025-03-07T13:27:07Z</time>
      </trkpt>
      <trkpt lat="44.40876" lon="1.12938">
        <ele>202.98</ele>
        <time>2025-03-07T13:27:15Z</time>
      </trkpt>
      <trkpt lat="44.40887" lon="1.12917">
        <ele>201.53</ele>
        <time>2025-03-07T13:27:29Z</time>
      </trkpt>
      <trkpt lat="44.40897" lon="1.12898">
        <ele>200.57</ele>
        <time>2025-03-07T13:27:42Z</time>
      </trkpt>
      <trkpt lat="44.40905" lon="1.12877">
        <ele>199.13</ele>
        <time>2025-03-07T13:27:56Z</time>
      </trkpt>
      <trkpt lat="44.40912" lon="1.12856">
        <ele>197.69</ele>
        <time>2025-03-07T13:28:12Z</time>
      </trkpt>
      <trkpt lat="44.40915" lon="1.12851">
        <ele>197.69</ele>
        <time>2025-03-07T13:28:16Z</time>
      </trkpt>
      <trkpt lat="44.40927" lon="1.12835">
        <ele>197.21</ele>
        <time>2025-03-07T13:28:31Z</time>
      </trkpt>
      <trkpt lat="44.40934" lon="1.12811">
        <ele>195.77</ele>
        <time>2025-03-07T13:28:47Z</time>
      </trkpt>
      <trkpt lat="44.40941" lon="1.12799">
        <ele>195.28</ele>
        <time>2025-03-07T13:29:03Z</time>
      </trkpt>
      <trkpt lat="44.40942" lon="1.12796">
        <ele>194.8</ele>
        <time>2025-03-07T13:29:23Z</time>
      </trkpt>
      <trkpt lat="44.40941" lon="1.12797">
        <ele>194.8</ele>
        <time>2025-03-07T13:29:36Z</time>
      </trkpt>
      <trkpt lat="44.40941" lon="1.12797">
        <ele>194.8</ele>
        <time>2025-03-07T13:29:54Z</time>
      </trkpt>
      <trkpt lat="44.40941" lon="1.12797">
        <ele>196.25</ele>
        <time>2025-03-07T13:29:58Z</time>
      </trkpt>
      <trkpt lat="44.40943" lon="1.12795">
        <ele>196.25</ele>
        <time>2025-03-07T13:30:15Z</time>
      </trkpt>
      <trkpt lat="44.40945" lon="1.12793">
        <ele>196.25</ele>
        <time>2025-03-07T13:30:32Z</time>
      </trkpt>
      <trkpt lat="44.40954" lon="1.12785">
        <ele>194.8</ele>
        <time>2025-03-07T13:30:46Z</time>
      </trkpt>
      <trkpt lat="44.40956" lon="1.12784">
        <ele>194.8</ele>
        <time>2025-03-07T13:30:50Z</time>
      </trkpt>
      <trkpt lat="44.40957" lon="1.12783">
        <ele>195.28</ele>
        <time>2025-03-07T13:30:52Z</time>
      </trkpt>
      <trkpt lat="44.40974" lon="1.12777">
        <ele>194.32</ele>
        <time>2025-03-07T13:31:10Z</time>
      </trkpt>
      <trkpt lat="44.40992" lon="1.12774">
        <ele>195.77</ele>
        <time>2025-03-07T13:31:28Z</time>
      </trkpt>
      <trkpt lat="44.40993" lon="1.12774">
        <ele>195.77</ele>
        <time>2025-03-07T13:31:29Z</time>
      </trkpt>
      <trkpt lat="44.41009" lon="1.12769">
        <ele>192.4</ele>
        <time>2025-03-07T13:31:46Z</time>
      </trkpt>
      <trkpt lat="44.41026" lon="1.12767">
        <ele>193.36</ele>
        <time>2025-03-07T13:32:00Z</time>
      </trkpt>
      <trkpt lat="44.41042" lon="1.12763">
        <ele>191.44</ele>
        <time>2025-03-07T13:32:16Z</time>
      </trkpt>
      <trkpt lat="44.41058" lon="1.12761">
        <ele>190.96</ele>
        <time>2025-03-07T13:32:30Z</time>
      </trkpt>
      <trkpt lat="44.41067" lon="1.1276">
        <ele>189.52</ele>
        <time>2025-03-07T13:32:38Z</time>
      </trkpt>
      <trkpt lat="44.41088" lon="1.12758">
        <ele>188.08</ele>
        <time>2025-03-07T13:32:57Z</time>
      </trkpt>
      <trkpt lat="44.41106" lon="1.1276">
        <ele>189.52</ele>
        <time>2025-03-07T13:33:13Z</time>
      </trkpt>
      <trkpt lat="44.41128" lon="1.12763">
        <ele>187.11</ele>
        <time>2025-03-07T13:33:32Z</time>
      </trkpt>
      <trkpt lat="44.41144" lon="1.12764">
        <ele>186.63</ele>
        <time>2025-03-07T13:33:48Z</time>
      </trkpt>
      <trkpt lat="44.41162" lon="1.12758">
        <ele>186.15</ele>
        <time>2025-03-07T13:34:06Z</time>
      </trkpt>
      <trkpt lat="44.41181" lon="1.12751">
        <ele>185.19</ele>
        <time>2025-03-07T13:34:24Z</time>
      </trkpt>
      <trkpt lat="44.41198" lon="1.12746">
        <ele>184.71</ele>
        <time>2025-03-07T13:34:42Z</time>
      </trkpt>
      <trkpt lat="44.41213" lon="1.1274">
        <ele>184.71</ele>
        <time>2025-03-07T13:34:57Z</time>
      </trkpt>
      <trkpt lat="44.41226" lon="1.12737">
        <ele>183.75</ele>
        <time>2025-03-07T13:35:15Z</time>
      </trkpt>
      <trkpt lat="44.41228" lon="1.1274">
        <ele>183.27</ele>
        <time>2025-03-07T13:35:28Z</time>
      </trkpt>
      <trkpt lat="44.41231" lon="1.12739">
        <ele>183.27</ele>
        <time>2025-03-07T13:35:47Z</time>
      </trkpt>
      <trkpt lat="44.41236" lon="1.12731">
        <ele>182.79</ele>
        <time>2025-03-07T13:36:00Z</time>
      </trkpt>
      <trkpt lat="44.41253" lon="1.12723">
        <ele>182.79</ele>
        <time>2025-03-07T13:36:16Z</time>
      </trkpt>
      <trkpt lat="44.41274" lon="1.12713">
        <ele>181.83</ele>
        <time>2025-03-07T13:36:35Z</time>
      </trkpt>
      <trkpt lat="44.41291" lon="1.12702">
        <ele>181.35</ele>
        <time>2025-03-07T13:36:52Z</time>
      </trkpt>
      <trkpt lat="44.41299" lon="1.12692">
        <ele>182.79</ele>
        <time>2025-03-07T13:37:03Z</time>
      </trkpt>
      <trkpt lat="44.4131" lon="1.12671">
        <ele>183.75</ele>
        <time>2025-03-07T13:37:19Z</time>
      </trkpt>
      <trkpt lat="44.4132" lon="1.12657">
        <ele>179.42</ele>
        <time>2025-03-07T13:37:32Z</time>
      </trkpt>
      <trkpt lat="44.41322" lon="1.12655">
        <ele>185.19</ele>
        <time>2025-03-07T13:37:34Z</time>
      </trkpt>
      <trkpt lat="44.41323" lon="1.12654">
        <ele>179.9</ele>
        <time>2025-03-07T13:37:35Z</time>
      </trkpt>
      <trkpt lat="44.41323" lon="1.12653">
        <ele>183.75</ele>
        <time>2025-03-07T13:37:36Z</time>
      </trkpt>
      <trkpt lat="44.41327" lon="1.12648">
        <ele>182.31</ele>
        <time>2025-03-07T13:37:40Z</time>
      </trkpt>
      <trkpt lat="44.41335" lon="1.12622">
        <ele>182.79</ele>
        <time>2025-03-07T13:37:57Z</time>
      </trkpt>
      <trkpt lat="44.4134" lon="1.12598">
        <ele>182.31</ele>
        <time>2025-03-07T13:38:14Z</time>
      </trkpt>
      <trkpt lat="44.41341" lon="1.12595">
        <ele>183.75</ele>
        <time>2025-03-07T13:38:16Z</time>
      </trkpt>
      <trkpt lat="44.41344" lon="1.12572">
        <ele>184.71</ele>
        <time>2025-03-07T13:38:32Z</time>
      </trkpt>
      <trkpt lat="44.41346" lon="1.12551">
        <ele>187.59</ele>
        <time>2025-03-07T13:38:48Z</time>
      </trkpt>
      <trkpt lat="44.41348" lon="1.12532">
        <ele>185.67</ele>
        <time>2025-03-07T13:39:05Z</time>
      </trkpt>
      <trkpt lat="44.41346" lon="1.12527">
        <ele>185.67</ele>
        <time>2025-03-07T13:39:10Z</time>
      </trkpt>
      <trkpt lat="44.41344" lon="1.12523">
        <ele>185.67</ele>
        <time>2025-03-07T13:39:14Z</time>
      </trkpt>
      <trkpt lat="44.41344" lon="1.12519">
        <ele>185.67</ele>
        <time>2025-03-07T13:39:17Z</time>
      </trkpt>
      <trkpt lat="44.41345" lon="1.12514">
        <ele>185.67</ele>
        <time>2025-03-07T13:39:20Z</time>
      </trkpt>
      <trkpt lat="44.41348" lon="1.12508">
        <ele>185.19</ele>
        <time>2025-03-07T13:39:26Z</time>
      </trkpt>
      <trkpt lat="44.41349" lon="1.12506">
        <ele>185.19</ele>
        <time>2025-03-07T13:39:28Z</time>
      </trkpt>
      <trkpt lat="44.4136" lon="1.12492">
        <ele>184.23</ele>
        <time>2025-03-07T13:39:43Z</time>
      </trkpt>
      <trkpt lat="44.41372" lon="1.12508">
        <ele>184.71</ele>
        <time>2025-03-07T13:39:58Z</time>
      </trkpt>
      <trkpt lat="44.41377" lon="1.12515">
        <ele>184.71</ele>
        <time>2025-03-07T13:40:05Z</time>
      </trkpt>
      <trkpt lat="44.41384" lon="1.12519">
        <ele>184.71</ele>
        <time>2025-03-07T13:40:14Z</time>
      </trkpt>
      <trkpt lat="44.41386" lon="1.12519">
        <ele>183.27</ele>
        <time>2025-03-07T13:40:16Z</time>
      </trkpt>
      <trkpt lat="44.41391" lon="1.12518">
        <ele>182.79</ele>
        <time>2025-03-07T13:40:22Z</time>
      </trkpt>
      <trkpt lat="44.41397" lon="1.12512">
        <ele>181.35</ele>
        <time>2025-03-07T13:40:31Z</time>
      </trkpt>
      <trkpt lat="44.41399" lon="1.1251">
        <ele>180.87</ele>
        <time>2025-03-07T13:40:39Z</time>
      </trkpt>
      <trkpt lat="44.41405" lon="1.12506">
        <ele>182.31</ele>
        <time>2025-03-07T13:40:45Z</time>
      </trkpt>
      <trkpt lat="44.41407" lon="1.12505">
        <ele>180.87</ele>
        <time>2025-03-07T13:40:47Z</time>
      </trkpt>
      <trkpt lat="44.41426" lon="1.12492">
        <ele>178.46</ele>
        <time>2025-03-07T13:41:09Z</time>
      </trkpt>
      <trkpt lat="44.41442" lon="1.12478">
        <ele>177.5</ele>
        <time>2025-03-07T13:41:26Z</time>
      </trkpt>
      <trkpt lat="44.41461" lon="1.12461">
        <ele>176.54</ele>
        <time>2025-03-07T13:41:46Z</time>
      </trkpt>
      <trkpt lat="44.41478" lon="1.12443">
        <ele>176.54</ele>
        <time>2025-03-07T13:42:04Z</time>
      </trkpt>
      <trkpt lat="44.41495" lon="1.12427">
        <ele>175.58</ele>
        <time>2025-03-07T13:42:22Z</time>
      </trkpt>
      <trkpt lat="44.4151" lon="1.12414">
        <ele>175.58</ele>
        <time>2025-03-07T13:42:39Z</time>
      </trkpt>
      <trkpt lat="44.41526" lon="1.12398">
        <ele>175.58</ele>
        <time>2025-03-07T13:42:57Z</time>
      </trkpt>
      <trkpt lat="44.41542" lon="1.12378">
        <ele>175.1</ele>
        <time>2025-03-07T13:43:16Z</time>
      </trkpt>
      <trkpt lat="44.41551" lon="1.1236">
        <ele>175.58</ele>
        <time>2025-03-07T13:43:33Z</time>
      </trkpt>
      <trkpt lat="44.4155" lon="1.12359">
        <ele>174.62</ele>
        <time>2025-03-07T13:43:44Z</time>
      </trkpt>
      <trkpt lat="44.41547" lon="1.12357">
        <ele>176.06</ele>
        <time>2025-03-07T13:44:01Z</time>
      </trkpt>
      <trkpt lat="44.41549" lon="1.12358">
        <ele>175.1</ele>
        <time>2025-03-07T13:44:08Z</time>
      </trkpt>
      <trkpt lat="44.41552" lon="1.12358">
        <ele>175.1</ele>
        <time>2025-03-07T13:44:12Z</time>
      </trkpt>
      <trkpt lat="44.4156" lon="1.1234">
        <ele>176.54</ele>
        <time>2025-03-07T13:44:26Z</time>
      </trkpt>
      <trkpt lat="44.41561" lon="1.12333">
        <ele>175.1</ele>
        <time>2025-03-07T13:44:30Z</time>
      </trkpt>
      <trkpt lat="44.41563" lon="1.12309">
        <ele>173.66</ele>
        <time>2025-03-07T13:44:46Z</time>
      </trkpt>
      <trkpt lat="44.41563" lon="1.12308">
        <ele>173.66</ele>
        <time>2025-03-07T13:44:47Z</time>
      </trkpt>
      <trkpt lat="44.41557" lon="1.12296">
        <ele>173.66</ele>
        <time>2025-03-07T13:44:56Z</time>
      </trkpt>
      <trkpt lat="44.41546" lon="1.12274">
        <ele>172.21</ele>
        <time>2025-03-07T13:45:14Z</time>
      </trkpt>
      <trkpt lat="44.41537" lon="1.12256">
        <ele>169.81</ele>
        <time>2025-03-07T13:45:29Z</time>
      </trkpt>
      <trkpt lat="44.41531" lon="1.12234">
        <ele>166.45</ele>
        <time>2025-03-07T13:45:48Z</time>
      </trkpt>
      <trkpt lat="44.41531" lon="1.12218">
        <ele>163.08</ele>
        <time>2025-03-07T13:46:01Z</time>
      </trkpt>
      <trkpt lat="44.41535" lon="1.12199">
        <ele>161.64</ele>
        <time>2025-03-07T13:46:16Z</time>
      </trkpt>
      <trkpt lat="44.41539" lon="1.12192">
        <ele>162.12</ele>
        <time>2025-03-07T13:46:23Z</time>
      </trkpt>
      <trkpt lat="44.41557" lon="1.12172">
        <ele>162.12</ele>
        <time>2025-03-07T13:46:42Z</time>
      </trkpt>
      <trkpt lat="44.41558" lon="1.12171">
        <ele>160.68</ele>
        <time>2025-03-07T13:46:44Z</time>
      </trkpt>
      <trkpt lat="44.4156" lon="1.1217">
        <ele>162.12</ele>
        <time>2025-03-07T13:46:46Z</time>
      </trkpt>
      <trkpt lat="44.41574" lon="1.12154">
        <ele>161.64</ele>
        <time>2025-03-07T13:47:02Z</time>
      </trkpt>
      <trkpt lat="44.41576" lon="1.1215">
        <ele>163.56</ele>
        <time>2025-03-07T13:47:08Z</time>
      </trkpt>
      <trkpt lat="44.41581" lon="1.12137">
        <ele>162.6</ele>
        <time>2025-03-07T13:47:21Z</time>
      </trkpt>
      <trkpt lat="44.41586" lon="1.1213">
        <ele>162.12</ele>
        <time>2025-03-07T13:47:30Z</time>
      </trkpt>
      <trkpt lat="44.41593" lon="1.12116">
        <ele>162.12</ele>
        <time>2025-03-07T13:47:43Z</time>
      </trkpt>
      <trkpt lat="44.41597" lon="1.12109">
        <ele>163.08</ele>
        <time>2025-03-07T13:47:49Z</time>
      </trkpt>
      <trkpt lat="44.41612" lon="1.12088">
        <ele>162.12</ele>
        <time>2025-03-07T13:48:07Z</time>
      </trkpt>
      <trkpt lat="44.41614" lon="1.12085">
        <ele>162.12</ele>
        <time>2025-03-07T13:48:10Z</time>
      </trkpt>
      <trkpt lat="44.4163" lon="1.12067">
        <ele>159.24</ele>
        <time>2025-03-07T13:48:29Z</time>
      </trkpt>
      <trkpt lat="44.41646" lon="1.12046">
        <ele>157.79</ele>
        <time>2025-03-07T13:48:48Z</time>
      </trkpt>
      <trkpt lat="44.4166" lon="1.12026">
        <ele>157.31</ele>
        <time>2025-03-07T13:49:06Z</time>
      </trkpt>
      <trkpt lat="44.41669" lon="1.12007">
        <ele>157.31</ele>
        <time>2025-03-07T13:49:22Z</time>
      </trkpt>
      <trkpt lat="44.41681" lon="1.11992">
        <ele>157.31</ele>
        <time>2025-03-07T13:49:36Z</time>
      </trkpt>
      <trkpt lat="44.41692" lon="1.11981">
        <ele>157.31</ele>
        <time>2025-03-07T13:49:50Z</time>
      </trkpt>
      <trkpt lat="44.41694" lon="1.11979">
        <ele>158.75</ele>
        <time>2025-03-07T13:49:52Z</time>
      </trkpt>
      <trkpt lat="44.41697" lon="1.11975">
        <ele>158.75</ele>
        <time>2025-03-07T13:49:55Z</time>
      </trkpt>
      <trkpt lat="44.41705" lon="1.11949">
        <ele>159.24</ele>
        <time>2025-03-07T13:50:13Z</time>
      </trkpt>
      <trkpt lat="44.41708" lon="1.11933">
        <ele>157.31</ele>
        <time>2025-03-07T13:50:24Z</time>
      </trkpt>
      <trkpt lat="44.4171" lon="1.11925">
        <ele>157.31</ele>
        <time>2025-03-07T13:50:30Z</time>
      </trkpt>
      <trkpt lat="44.41713" lon="1.11895">
        <ele>155.87</ele>
        <time>2025-03-07T13:50:49Z</time>
      </trkpt>
      <trkpt lat="44.41709" lon="1.11877">
        <ele>154.43</ele>
        <time>2025-03-07T13:51:03Z</time>
      </trkpt>
      <trkpt lat="44.41704" lon="1.11857">
        <ele>154.43</ele>
        <time>2025-03-07T13:51:18Z</time>
      </trkpt>
      <trkpt lat="44.41692" lon="1.11839">
        <ele>154.43</ele>
        <time>2025-03-07T13:51:35Z</time>
      </trkpt>
      <trkpt lat="44.4168" lon="1.11819">
        <ele>153.95</ele>
        <time>2025-03-07T13:51:52Z</time>
      </trkpt>
      <trkpt lat="44.41672" lon="1.11804">
        <ele>155.39</ele>
        <time>2025-03-07T13:52:09Z</time>
      </trkpt>
      <trkpt lat="44.41661" lon="1.11784">
        <ele>155.39</ele>
        <time>2025-03-07T13:52:26Z</time>
      </trkpt>
      <trkpt lat="44.41648" lon="1.11765">
        <ele>155.87</ele>
        <time>2025-03-07T13:52:44Z</time>
      </trkpt>
      <trkpt lat="44.41636" lon="1.11751">
        <ele>156.35</ele>
        <time>2025-03-07T13:52:59Z</time>
      </trkpt>
      <trkpt lat="44.41623" lon="1.11733">
        <ele>157.31</ele>
        <time>2025-03-07T13:53:16Z</time>
      </trkpt>
      <trkpt lat="44.41614" lon="1.11719">
        <ele>158.27</ele>
        <time>2025-03-07T13:53:32Z</time>
      </trkpt>
      <trkpt lat="44.41607" lon="1.11704">
        <ele>160.2</ele>
        <time>2025-03-07T13:53:47Z</time>
      </trkpt>
      <trkpt lat="44.41604" lon="1.11702">
        <ele>160.2</ele>
        <time>2025-03-07T13:53:50Z</time>
      </trkpt>
      <trkpt lat="44.41593" lon="1.11684">
        <ele>163.08</ele>
        <time>2025-03-07T13:54:07Z</time>
      </trkpt>
      <trkpt lat="44.41589" lon="1.11677">
        <ele>163.56</ele>
        <time>2025-03-07T13:54:21Z</time>
      </trkpt>
      <trkpt lat="44.41583" lon="1.11675">
        <ele>164.04</ele>
        <time>2025-03-07T13:54:27Z</time>
      </trkpt>
      <trkpt lat="44.41567" lon="1.1167">
        <ele>164.04</ele>
        <time>2025-03-07T13:54:44Z</time>
      </trkpt>
      <trkpt lat="44.41561" lon="1.11656">
        <ele>165.48</ele>
        <time>2025-03-07T13:55:00Z</time>
      </trkpt>
      <trkpt lat="44.4156" lon="1.11654">
        <ele>166.93</ele>
        <time>2025-03-07T13:55:05Z</time>
      </trkpt>
      <trkpt lat="44.41551" lon="1.11641">
        <ele>166.45</ele>
        <time>2025-03-07T13:55:22Z</time>
      </trkpt>
      <trkpt lat="44.41548" lon="1.11636">
        <ele>166.45</ele>
        <time>2025-03-07T13:55:27Z</time>
      </trkpt>
      <trkpt lat="44.41543" lon="1.11626">
        <ele>167.89</ele>
        <time>2025-03-07T13:55:36Z</time>
      </trkpt>
      <trkpt lat="44.41542" lon="1.11623">
        <ele>167.89</ele>
        <time>2025-03-07T13:55:38Z</time>
      </trkpt>
      <trkpt lat="44.41532" lon="1.11607">
        <ele>168.85</ele>
        <time>2025-03-07T13:55:54Z</time>
      </trkpt>
      <trkpt lat="44.41524" lon="1.1159">
        <ele>169.33</ele>
        <time>2025-03-07T13:56:09Z</time>
      </trkpt>
      <trkpt lat="44.41513" lon="1.11573">
        <ele>169.33</ele>
        <time>2025-03-07T13:56:26Z</time>
      </trkpt>
      <trkpt lat="44.41506" lon="1.1156">
        <ele>170.29</ele>
        <time>2025-03-07T13:56:38Z</time>
      </trkpt>
      <trkpt lat="44.41504" lon="1.11556">
        <ele>170.29</ele>
        <time>2025-03-07T13:56:41Z</time>
      </trkpt>
      <trkpt lat="44.41497" lon="1.11542">
        <ele>170.77</ele>
        <time>2025-03-07T13:56:54Z</time>
      </trkpt>
      <trkpt lat="44.41489" lon="1.11526">
        <ele>172.21</ele>
        <time>2025-03-07T13:57:08Z</time>
      </trkpt>
      <trkpt lat="44.41479" lon="1.11507">
        <ele>172.21</ele>
        <time>2025-03-07T13:57:24Z</time>
      </trkpt>
      <trkpt lat="44.41468" lon="1.11488">
        <ele>173.17</ele>
        <time>2025-03-07T13:57:40Z</time>
      </trkpt>
      <trkpt lat="44.41459" lon="1.1147">
        <ele>174.14</ele>
        <time>2025-03-07T13:57:56Z</time>
      </trkpt>
      <trkpt lat="44.4145" lon="1.11453">
        <ele>174.62</ele>
        <time>2025-03-07T13:58:12Z</time>
      </trkpt>
      <trkpt lat="44.41441" lon="1.11436">
        <ele>176.06</ele>
        <time>2025-03-07T13:58:28Z</time>
      </trkpt>
      <trkpt lat="44.41433" lon="1.1142">
        <ele>178.94</ele>
        <time>2025-03-07T13:58:44Z</time>
      </trkpt>
      <trkpt lat="44.41431" lon="1.11412">
        <ele>180.38</ele>
        <time>2025-03-07T13:58:59Z</time>
      </trkpt>
      <trkpt lat="44.41424" lon="1.11398">
        <ele>183.27</ele>
        <time>2025-03-07T13:59:14Z</time>
      </trkpt>
      <trkpt lat="44.41421" lon="1.11398">
        <ele>184.71</ele>
        <time>2025-03-07T13:59:28Z</time>
      </trkpt>
      <trkpt lat="44.41417" lon="1.11389">
        <ele>185.67</ele>
        <time>2025-03-07T13:59:40Z</time>
      </trkpt>
      <trkpt lat="44.41407" lon="1.1137">
        <ele>186.15</ele>
        <time>2025-03-07T13:59:57Z</time>
      </trkpt>
      <trkpt lat="44.41403" lon="1.11361">
        <ele>187.11</ele>
        <time>2025-03-07T14:00:12Z</time>
      </trkpt>
      <trkpt lat="44.414" lon="1.11356">
        <ele>185.67</ele>
        <time>2025-03-07T14:00:17Z</time>
      </trkpt>
      <trkpt lat="44.41395" lon="1.11353">
        <ele>185.67</ele>
        <time>2025-03-07T14:00:30Z</time>
      </trkpt>
      <trkpt lat="44.41394" lon="1.11352">
        <ele>187.11</ele>
        <time>2025-03-07T14:00:33Z</time>
      </trkpt>
      <trkpt lat="44.41388" lon="1.11349">
        <ele>187.11</ele>
        <time>2025-03-07T14:00:43Z</time>
      </trkpt>
      <trkpt lat="44.41374" lon="1.11343">
        <ele>187.59</ele>
        <time>2025-03-07T14:01:00Z</time>
      </trkpt>
      <trkpt lat="44.41367" lon="1.11345">
        <ele>189.52</ele>
        <time>2025-03-07T14:01:12Z</time>
      </trkpt>
      <trkpt lat="44.41365" lon="1.11348">
        <ele>190.96</ele>
        <time>2025-03-07T14:01:14Z</time>
      </trkpt>
      <trkpt lat="44.41362" lon="1.1136">
        <ele>190.96</ele>
        <time>2025-03-07T14:01:28Z</time>
      </trkpt>
      <trkpt lat="44.41362" lon="1.11357">
        <ele>190.96</ele>
        <time>2025-03-07T14:01:33Z</time>
      </trkpt>
      <trkpt lat="44.41365" lon="1.11337">
        <ele>189.52</ele>
        <time>2025-03-07T14:01:47Z</time>
      </trkpt>
      <trkpt lat="44.41366" lon="1.11322">
        <ele>188.08</ele>
        <time>2025-03-07T14:01:57Z</time>
      </trkpt>
      <trkpt lat="44.41369" lon="1.11319">
        <ele>187.11</ele>
        <time>2025-03-07T14:02:00Z</time>
      </trkpt>
      <trkpt lat="44.41373" lon="1.11299">
        <ele>185.67</ele>
        <time>2025-03-07T14:02:16Z</time>
      </trkpt>
      <trkpt lat="44.41376" lon="1.11279">
        <ele>183.75</ele>
        <time>2025-03-07T14:02:31Z</time>
      </trkpt>
      <trkpt lat="44.41381" lon="1.11254">
        <ele>181.35</ele>
        <time>2025-03-07T14:02:49Z</time>
      </trkpt>
      <trkpt lat="44.41385" lon="1.1124">
        <ele>181.35</ele>
        <time>2025-03-07T14:03:03Z</time>
      </trkpt>
      <trkpt lat="44.41398" lon="1.11232">
        <ele>178.94</ele>
        <time>2025-03-07T14:03:19Z</time>
      </trkpt>
      <trkpt lat="44.41399" lon="1.11231">
        <ele>178.94</ele>
        <time>2025-03-07T14:03:20Z</time>
      </trkpt>
      <trkpt lat="44.41414" lon="1.11221">
        <ele>177.98</ele>
        <time>2025-03-07T14:03:36Z</time>
      </trkpt>
      <trkpt lat="44.41422" lon="1.11217">
        <ele>177.02</ele>
        <time>2025-03-07T14:03:45Z</time>
      </trkpt>
      <trkpt lat="44.41426" lon="1.11215">
        <ele>177.98</ele>
        <time>2025-03-07T14:03:49Z</time>
      </trkpt>
      <trkpt lat="44.41438" lon="1.11209">
        <ele>176.54</ele>
        <time>2025-03-07T14:04:01Z</time>
      </trkpt>
      <trkpt lat="44.41453" lon="1.11197">
        <ele>174.14</ele>
        <time>2025-03-07T14:04:17Z</time>
      </trkpt>
      <trkpt lat="44.41471" lon="1.11185">
        <ele>173.66</ele>
        <time>2025-03-07T14:04:35Z</time>
      </trkpt>
      <trkpt lat="44.41482" lon="1.11174">
        <ele>173.66</ele>
        <time>2025-03-07T14:04:49Z</time>
      </trkpt>
      <trkpt lat="44.41482" lon="1.11171">
        <ele>172.69</ele>
        <time>2025-03-07T14:04:59Z</time>
      </trkpt>
      <trkpt lat="44.41478" lon="1.11161">
        <ele>172.21</ele>
        <time>2025-03-07T14:05:12Z</time>
      </trkpt>
      <trkpt lat="44.41473" lon="1.11153">
        <ele>172.21</ele>
        <time>2025-03-07T14:05:25Z</time>
      </trkpt>
      <trkpt lat="44.41472" lon="1.11151">
        <ele>173.66</ele>
        <time>2025-03-07T14:05:29Z</time>
      </trkpt>
      <trkpt lat="44.41465" lon="1.11137">
        <ele>174.62</ele>
        <time>2025-03-07T14:05:44Z</time>
      </trkpt>
      <trkpt lat="44.41462" lon="1.1113">
        <ele>175.1</ele>
        <time>2025-03-07T14:05:51Z</time>
      </trkpt>
      <trkpt lat="44.41455" lon="1.11124">
        <ele>175.58</ele>
        <time>2025-03-07T14:06:06Z</time>
      </trkpt>
      <trkpt lat="44.41447" lon="1.11118">
        <ele>175.1</ele>
        <time>2025-03-07T14:06:21Z</time>
      </trkpt>
      <trkpt lat="44.41441" lon="1.11119">
        <ele>179.42</ele>
        <time>2025-03-07T14:06:29Z</time>
      </trkpt>
      <trkpt lat="44.4144" lon="1.11119">
        <ele>177.02</ele>
        <time>2025-03-07T14:06:30Z</time>
      </trkpt>
      <trkpt lat="44.41425" lon="1.11123">
        <ele>176.54</ele>
        <time>2025-03-07T14:06:49Z</time>
      </trkpt>
      <trkpt lat="44.41419" lon="1.1112">
        <ele>178.46</ele>
        <time>2025-03-07T14:07:05Z</time>
      </trkpt>
      <trkpt lat="44.41409" lon="1.11102">
        <ele>179.9</ele>
        <time>2025-03-07T14:07:22Z</time>
      </trkpt>
      <trkpt lat="44.41402" lon="1.11087">
        <ele>180.87</ele>
        <time>2025-03-07T14:07:36Z</time>
      </trkpt>
      <trkpt lat="44.41393" lon="1.11068">
        <ele>182.31</ele>
        <time>2025-03-07T14:07:52Z</time>
      </trkpt>
      <trkpt lat="44.41384" lon="1.11046">
        <ele>182.79</ele>
        <time>2025-03-07T14:08:10Z</time>
      </trkpt>
      <trkpt lat="44.41382" lon="1.11042">
        <ele>183.27</ele>
        <time>2025-03-07T14:08:14Z</time>
      </trkpt>
      <trkpt lat="44.41375" lon="1.11022">
        <ele>183.27</ele>
        <time>2025-03-07T14:08:31Z</time>
      </trkpt>
      <trkpt lat="44.4137" lon="1.11001">
        <ele>185.19</ele>
        <time>2025-03-07T14:08:47Z</time>
      </trkpt>
      <trkpt lat="44.41367" lon="1.10981">
        <ele>186.63</ele>
        <time>2025-03-07T14:09:02Z</time>
      </trkpt>
      <trkpt lat="44.41364" lon="1.1096">
        <ele>188.08</ele>
        <time>2025-03-07T14:09:17Z</time>
      </trkpt>
      <trkpt lat="44.41361" lon="1.10947">
        <ele>189.04</ele>
        <time>2025-03-07T14:09:27Z</time>
      </trkpt>
      <trkpt lat="44.4136" lon="1.10934">
        <ele>189.52</ele>
        <time>2025-03-07T14:09:35Z</time>
      </trkpt>
      <trkpt lat="44.41354" lon="1.10909">
        <ele>190.48</ele>
        <time>2025-03-07T14:09:53Z</time>
      </trkpt>
      <trkpt lat="44.4135" lon="1.10887">
        <ele>191.92</ele>
        <time>2025-03-07T14:10:10Z</time>
      </trkpt>
      <trkpt lat="44.41347" lon="1.10869">
        <ele>192.88</ele>
        <time>2025-03-07T14:10:24Z</time>
      </trkpt>
      <trkpt lat="44.41342" lon="1.10844">
        <ele>194.32</ele>
        <time>2025-03-07T14:10:42Z</time>
      </trkpt>
      <trkpt lat="44.41337" lon="1.10829">
        <ele>195.28</ele>
        <time>2025-03-07T14:10:54Z</time>
      </trkpt>
      <trkpt lat="44.41336" lon="1.10825">
        <ele>195.28</ele>
        <time>2025-03-07T14:10:57Z</time>
      </trkpt>
      <trkpt lat="44.41334" lon="1.10821">
        <ele>195.77</ele>
        <time>2025-03-07T14:11:00Z</time>
      </trkpt>
      <trkpt lat="44.41331" lon="1.10815">
        <ele>195.77</ele>
        <time>2025-03-07T14:11:05Z</time>
      </trkpt>
      <trkpt lat="44.4133" lon="1.10812">
        <ele>195.77</ele>
        <time>2025-03-07T14:11:07Z</time>
      </trkpt>
      <trkpt lat="44.4132" lon="1.10796">
        <ele>197.21</ele>
        <time>2025-03-07T14:11:23Z</time>
      </trkpt>
      <trkpt lat="44.41307" lon="1.10783">
        <ele>197.69</ele>
        <time>2025-03-07T14:11:38Z</time>
      </trkpt>
      <trkpt lat="44.41307" lon="1.10782">
        <ele>197.69</ele>
        <time>2025-03-07T14:11:50Z</time>
      </trkpt>
      <trkpt lat="44.41306" lon="1.10782">
        <ele>197.69</ele>
        <time>2025-03-07T14:12:10Z</time>
      </trkpt>
      <trkpt lat="44.41305" lon="1.10782">
        <ele>197.69</ele>
        <time>2025-03-07T14:12:24Z</time>
      </trkpt>
      <trkpt lat="44.41305" lon="1.10781">
        <ele>197.69</ele>
        <time>2025-03-07T14:12:37Z</time>
      </trkpt>
      <trkpt lat="44.41302" lon="1.10779">
        <ele>197.69</ele>
        <time>2025-03-07T14:12:50Z</time>
      </trkpt>
      <trkpt lat="44.41301" lon="1.10778">
        <ele>197.69</ele>
        <time>2025-03-07T14:13:04Z</time>
      </trkpt>
      <trkpt lat="44.41294" lon="1.10774">
        <ele>198.17</ele>
        <time>2025-03-07T14:13:20Z</time>
      </trkpt>
      <trkpt lat="44.41291" lon="1.10771">
        <ele>198.17</ele>
        <time>2025-03-07T14:13:35Z</time>
      </trkpt>
      <trkpt lat="44.41288" lon="1.10767">
        <ele>198.17</ele>
        <time>2025-03-07T14:13:43Z</time>
      </trkpt>
      <trkpt lat="44.41277" lon="1.10761">
        <ele>198.17</ele>
        <time>2025-03-07T14:13:55Z</time>
      </trkpt>
      <trkpt lat="44.41262" lon="1.10751">
        <ele>199.13</ele>
        <time>2025-03-07T14:14:12Z</time>
      </trkpt>
      <trkpt lat="44.4125" lon="1.10739">
        <ele>200.57</ele>
        <time>2025-03-07T14:14:29Z</time>
      </trkpt>
      <trkpt lat="44.41238" lon="1.1073">
        <ele>201.53</ele>
        <time>2025-03-07T14:14:44Z</time>
      </trkpt>
      <trkpt lat="44.41224" lon="1.10718">
        <ele>202.98</ele>
        <time>2025-03-07T14:15:01Z</time>
      </trkpt>
      <trkpt lat="44.41212" lon="1.10708">
        <ele>202.98</ele>
        <time>2025-03-07T14:15:16Z</time>
      </trkpt>
      <trkpt lat="44.41199" lon="1.10697">
        <ele>203.94</ele>
        <time>2025-03-07T14:15:33Z</time>
      </trkpt>
      <trkpt lat="44.41187" lon="1.1069">
        <ele>204.9</ele>
        <time>2025-03-07T14:15:48Z</time>
      </trkpt>
      <trkpt lat="44.41176" lon="1.10685">
        <ele>205.38</ele>
        <time>2025-03-07T14:15:59Z</time>
      </trkpt>
      <trkpt lat="44.41174" lon="1.10684">
        <ele>205.86</ele>
        <time>2025-03-07T14:16:01Z</time>
      </trkpt>
      <trkpt lat="44.41159" lon="1.1068">
        <ele>207.3</ele>
        <time>2025-03-07T14:16:17Z</time>
      </trkpt>
      <trkpt lat="44.41147" lon="1.1068">
        <ele>208.74</ele>
        <time>2025-03-07T14:16:33Z</time>
      </trkpt>
      <trkpt lat="44.4113" lon="1.10682">
        <ele>210.19</ele>
        <time>2025-03-07T14:16:50Z</time>
      </trkpt>
      <trkpt lat="44.41116" lon="1.10686">
        <ele>211.63</ele>
        <time>2025-03-07T14:17:05Z</time>
      </trkpt>
      <trkpt lat="44.41103" lon="1.10694">
        <ele>212.59</ele>
        <time>2025-03-07T14:17:20Z</time>
      </trkpt>
      <trkpt lat="44.4109" lon="1.10704">
        <ele>214.99</ele>
        <time>2025-03-07T14:17:36Z</time>
      </trkpt>
      <trkpt lat="44.41085" lon="1.10708">
        <ele>214.99</ele>
        <time>2025-03-07T14:17:42Z</time>
      </trkpt>
      <trkpt lat="44.41073" lon="1.10719">
        <ele>215.95</ele>
        <time>2025-03-07T14:17:58Z</time>
      </trkpt>
      <trkpt lat="44.41068" lon="1.10723">
        <ele>216.91</ele>
        <time>2025-03-07T14:18:12Z</time>
      </trkpt>
      <trkpt lat="44.41071" lon="1.10722">
        <ele>216.91</ele>
        <time>2025-03-07T14:18:40Z</time>
      </trkpt>
      <trkpt lat="44.4107" lon="1.10726">
        <ele>217.4</ele>
        <time>2025-03-07T14:19:09Z</time>
      </trkpt>
      <trkpt lat="44.41059" lon="1.10733">
        <ele>218.36</ele>
        <time>2025-03-07T14:19:24Z</time>
      </trkpt>
      <trkpt lat="44.41052" lon="1.10747">
        <ele>219.32</ele>
        <time>2025-03-07T14:19:35Z</time>
      </trkpt>
      <trkpt lat="44.4105" lon="1.10752">
        <ele>219.8</ele>
        <time>2025-03-07T14:19:38Z</time>
      </trkpt>
      <trkpt lat="44.41036" lon="1.10776">
        <ele>222.2</ele>
        <time>2025-03-07T14:19:57Z</time>
      </trkpt>
      <trkpt lat="44.41027" lon="1.10796">
        <ele>224.61</ele>
        <time>2025-03-07T14:20:11Z</time>
      </trkpt>
      <trkpt lat="44.41018" lon="1.10817">
        <ele>226.05</ele>
        <time>2025-03-07T14:20:26Z</time>
      </trkpt>
      <trkpt lat="44.41012" lon="1.10848">
        <ele>227.49</ele>
        <time>2025-03-07T14:20:43Z</time>
      </trkpt>
      <trkpt lat="44.41008" lon="1.10876">
        <ele>229.89</ele>
        <time>2025-03-07T14:20:58Z</time>
      </trkpt>
      <trkpt lat="44.41006" lon="1.10907">
        <ele>232.78</ele>
        <time>2025-03-07T14:21:16Z</time>
      </trkpt>
      <trkpt lat="44.41005" lon="1.1091">
        <ele>233.74</ele>
        <time>2025-03-07T14:21:18Z</time>
      </trkpt>
      <trkpt lat="44.41003" lon="1.10915">
        <ele>233.74</ele>
        <time>2025-03-07T14:21:22Z</time>
      </trkpt>
      <trkpt lat="44.41007" lon="1.10937">
        <ele>236.62</ele>
        <time>2025-03-07T14:21:39Z</time>
      </trkpt>
      <trkpt lat="44.41009" lon="1.10946">
        <ele>237.58</ele>
        <time>2025-03-07T14:21:50Z</time>
      </trkpt>
      <trkpt lat="44.41009" lon="1.10965">
        <ele>238.06</ele>
        <time>2025-03-07T14:22:04Z</time>
      </trkpt>
      <trkpt lat="44.41008" lon="1.10981">
        <ele>238.06</ele>
        <time>2025-03-07T14:22:17Z</time>
      </trkpt>
      <trkpt lat="44.41011" lon="1.10997">
        <ele>238.54</ele>
        <time>2025-03-07T14:22:32Z</time>
      </trkpt>
      <trkpt lat="44.41018" lon="1.11013">
        <ele>240.95</ele>
        <time>2025-03-07T14:22:47Z</time>
      </trkpt>
      <trkpt lat="44.41019" lon="1.11014">
        <ele>239.02</ele>
        <time>2025-03-07T14:22:49Z</time>
      </trkpt>
      <trkpt lat="44.41024" lon="1.11023">
        <ele>239.02</ele>
        <time>2025-03-07T14:23:04Z</time>
      </trkpt>
      <trkpt lat="44.41022" lon="1.11023">
        <ele>239.02</ele>
        <time>2025-03-07T14:23:18Z</time>
      </trkpt>
      <trkpt lat="44.41023" lon="1.11025">
        <ele>239.02</ele>
        <time>2025-03-07T14:23:35Z</time>
      </trkpt>
      <trkpt lat="44.41024" lon="1.11022">
        <ele>239.02</ele>
        <time>2025-03-07T14:23:50Z</time>
      </trkpt>
      <trkpt lat="44.41024" lon="1.11028">
        <ele>239.02</ele>
        <time>2025-03-07T14:23:58Z</time>
      </trkpt>
      <trkpt lat="44.41027" lon="1.11034">
        <ele>240.47</ele>
        <time>2025-03-07T14:24:11Z</time>
      </trkpt>
      <trkpt lat="44.41025" lon="1.11027">
        <ele>240.47</ele>
        <time>2025-03-07T14:24:26Z</time>
      </trkpt>
      <trkpt lat="44.41024" lon="1.11027">
        <ele>235.18</ele>
        <time>2025-03-07T14:24:39Z</time>
      </trkpt>
      <trkpt lat="44.41023" lon="1.11027">
        <ele>241.91</ele>
        <time>2025-03-07T14:24:40Z</time>
      </trkpt>
      <trkpt lat="44.41023" lon="1.11027">
        <ele>238.06</ele>
        <time>2025-03-07T14:24:43Z</time>
      </trkpt>
      <trkpt lat="44.41023" lon="1.11027">
        <ele>232.3</ele>
        <time>2025-03-07T14:24:44Z</time>
      </trkpt>
      <trkpt lat="44.41023" lon="1.11027">
        <ele>245.27</ele>
        <time>2025-03-07T14:24:45Z</time>
      </trkpt>
      <trkpt lat="44.41024" lon="1.11027">
        <ele>241.43</ele>
        <time>2025-03-07T14:24:46Z</time>
      </trkpt>
      <trkpt lat="44.41024" lon="1.11027">
        <ele>239.51</ele>
        <time>2025-03-07T14:24:48Z</time>
      </trkpt>
      <trkpt lat="44.41024" lon="1.11027">
        <ele>239.99</ele>
        <time>2025-03-07T14:25:12Z</time>
      </trkpt>
      <trkpt lat="44.41024" lon="1.11027">
        <ele>239.99</ele>
        <time>2025-03-07T14:25:13Z</time>
      </trkpt>
      <trkpt lat="44.41023" lon="1.11035">
        <ele>239.02</ele>
        <time>2025-03-07T14:25:25Z</time>
      </trkpt>
      <trkpt lat="44.41025" lon="1.11038">
        <ele>239.02</ele>
        <time>2025-03-07T14:25:27Z</time>
      </trkpt>
      <trkpt lat="44.41027" lon="1.11049">
        <ele>240.47</ele>
        <time>2025-03-07T14:25:36Z</time>
      </trkpt>
      <trkpt lat="44.4103" lon="1.11064">
        <ele>242.39</ele>
        <time>2025-03-07T14:25:47Z</time>
      </trkpt>
      <trkpt lat="44.4103" lon="1.11065">
        <ele>227.97</ele>
        <time>2025-03-07T14:25:48Z</time>
      </trkpt>
      <trkpt lat="44.41029" lon="1.11066">
        <ele>251.04</ele>
        <time>2025-03-07T14:25:49Z</time>
      </trkpt>
      <trkpt lat="44.41029" lon="1.11067">
        <ele>245.75</ele>
        <time>2025-03-07T14:25:50Z</time>
      </trkpt>
      <trkpt lat="44.41029" lon="1.11069">
        <ele>241.91</ele>
        <time>2025-03-07T14:25:52Z</time>
      </trkpt>
      <trkpt lat="44.4103" lon="1.11072">
        <ele>241.43</ele>
        <time>2025-03-07T14:25:54Z</time>
      </trkpt>
      <trkpt lat="44.41028" lon="1.11094">
        <ele>241.91</ele>
        <time>2025-03-07T14:26:10Z</time>
      </trkpt>
      <trkpt lat="44.41027" lon="1.11101">
        <ele>241.91</ele>
        <time>2025-03-07T14:26:15Z</time>
      </trkpt>
      <trkpt lat="44.41024" lon="1.11109">
        <ele>238.06</ele>
        <time>2025-03-07T14:26:22Z</time>
      </trkpt>
      <trkpt lat="44.41024" lon="1.11112">
        <ele>239.99</ele>
        <time>2025-03-07T14:26:24Z</time>
      </trkpt>
      <trkpt lat="44.41022" lon="1.11122">
        <ele>241.43</ele>
        <time>2025-03-07T14:26:31Z</time>
      </trkpt>
      <trkpt lat="44.41017" lon="1.11141">
        <ele>240.95</ele>
        <time>2025-03-07T14:26:45Z</time>
      </trkpt>
      <trkpt lat="44.41013" lon="1.1115">
        <ele>241.43</ele>
        <time>2025-03-07T14:26:53Z</time>
      </trkpt>
      <trkpt lat="44.41012" lon="1.11155">
        <ele>239.02</ele>
        <time>2025-03-07T14:26:56Z</time>
      </trkpt>
      <trkpt lat="44.41012" lon="1.11159">
        <ele>240.95</ele>
        <time>2025-03-07T14:26:59Z</time>
      </trkpt>
      <trkpt lat="44.4101" lon="1.11175">
        <ele>240.95</ele>
        <time>2025-03-07T14:27:10Z</time>
      </trkpt>
      <trkpt lat="44.41008" lon="1.11183">
        <ele>242.39</ele>
        <time>2025-03-07T14:27:16Z</time>
      </trkpt>
      <trkpt lat="44.41006" lon="1.11185">
        <ele>239.99</ele>
        <time>2025-03-07T14:27:18Z</time>
      </trkpt>
      <trkpt lat="44.41005" lon="1.11194">
        <ele>239.99</ele>
        <time>2025-03-07T14:27:24Z</time>
      </trkpt>
      <trkpt lat="44.40999" lon="1.1122">
        <ele>241.43</ele>
        <time>2025-03-07T14:27:42Z</time>
      </trkpt>
      <trkpt lat="44.40992" lon="1.11247">
        <ele>242.87</ele>
        <time>2025-03-07T14:28:00Z</time>
      </trkpt>
      <trkpt lat="44.40987" lon="1.11268">
        <ele>244.79</ele>
        <time>2025-03-07T14:28:14Z</time>
      </trkpt>
      <trkpt lat="44.40986" lon="1.11274">
        <ele>243.35</ele>
        <time>2025-03-07T14:28:18Z</time>
      </trkpt>
      <trkpt lat="44.40981" lon="1.11298">
        <ele>242.87</ele>
        <time>2025-03-07T14:28:35Z</time>
      </trkpt>
      <trkpt lat="44.40974" lon="1.11319">
        <ele>242.87</ele>
        <time>2025-03-07T14:28:50Z</time>
      </trkpt>
      <trkpt lat="44.40965" lon="1.11338">
        <ele>242.87</ele>
        <time>2025-03-07T14:29:05Z</time>
      </trkpt>
      <trkpt lat="44.40953" lon="1.11357">
        <ele>242.87</ele>
        <time>2025-03-07T14:29:21Z</time>
      </trkpt>
      <trkpt lat="44.4094" lon="1.11378">
        <ele>242.87</ele>
        <time>2025-03-07T14:29:37Z</time>
      </trkpt>
      <trkpt lat="44.40935" lon="1.11387">
        <ele>242.87</ele>
        <time>2025-03-07T14:29:44Z</time>
      </trkpt>
      <trkpt lat="44.40932" lon="1.11391">
        <ele>242.87</ele>
        <time>2025-03-07T14:29:48Z</time>
      </trkpt>
      <trkpt lat="44.40929" lon="1.11396">
        <ele>242.87</ele>
        <time>2025-03-07T14:29:51Z</time>
      </trkpt>
      <trkpt lat="44.40924" lon="1.11403">
        <ele>244.31</ele>
        <time>2025-03-07T14:29:56Z</time>
      </trkpt>
      <trkpt lat="44.40911" lon="1.11424">
        <ele>244.79</ele>
        <time>2025-03-07T14:30:12Z</time>
      </trkpt>
      <trkpt lat="44.40899" lon="1.1145">
        <ele>243.83</ele>
        <time>2025-03-07T14:30:30Z</time>
      </trkpt>
      <trkpt lat="44.4089" lon="1.1147">
        <ele>244.79</ele>
        <time>2025-03-07T14:30:44Z</time>
      </trkpt>
      <trkpt lat="44.40886" lon="1.11481">
        <ele>242.87</ele>
        <time>2025-03-07T14:30:52Z</time>
      </trkpt>
      <trkpt lat="44.40881" lon="1.11492">
        <ele>244.79</ele>
        <time>2025-03-07T14:31:00Z</time>
      </trkpt>
      <trkpt lat="44.40872" lon="1.1151">
        <ele>243.35</ele>
        <time>2025-03-07T14:31:13Z</time>
      </trkpt>
      <trkpt lat="44.40868" lon="1.11519">
        <ele>244.79</ele>
        <time>2025-03-07T14:31:20Z</time>
      </trkpt>
      <trkpt lat="44.40853" lon="1.1154">
        <ele>246.23</ele>
        <time>2025-03-07T14:31:38Z</time>
      </trkpt>
      <trkpt lat="44.40839" lon="1.11553">
        <ele>243.35</ele>
        <time>2025-03-07T14:31:52Z</time>
      </trkpt>
      <trkpt lat="44.40836" lon="1.11556">
        <ele>244.79</ele>
        <time>2025-03-07T14:31:55Z</time>
      </trkpt>
      <trkpt lat="44.40833" lon="1.11559">
        <ele>246.72</ele>
        <time>2025-03-07T14:31:58Z</time>
      </trkpt>
      <trkpt lat="44.40815" lon="1.11575">
        <ele>247.68</ele>
        <time>2025-03-07T14:32:16Z</time>
      </trkpt>
      <trkpt lat="44.40797" lon="1.11589">
        <ele>248.64</ele>
        <time>2025-03-07T14:32:34Z</time>
      </trkpt>
      <trkpt lat="44.40783" lon="1.11603">
        <ele>249.6</ele>
        <time>2025-03-07T14:32:51Z</time>
      </trkpt>
      <trkpt lat="44.40774" lon="1.11611">
        <ele>249.6</ele>
        <time>2025-03-07T14:33:03Z</time>
      </trkpt>
      <trkpt lat="44.40773" lon="1.1162">
        <ele>249.6</ele>
        <time>2025-03-07T14:33:18Z</time>
      </trkpt>
      <trkpt lat="44.40772" lon="1.11618">
        <ele>250.08</ele>
        <time>2025-03-07T14:33:40Z</time>
      </trkpt>
      <trkpt lat="44.40779" lon="1.11609">
        <ele>250.08</ele>
        <time>2025-03-07T14:33:55Z</time>
      </trkpt>
      <trkpt lat="44.4078" lon="1.11606">
        <ele>250.08</ele>
        <time>2025-03-07T14:34:12Z</time>
      </trkpt>
      <trkpt lat="44.40775" lon="1.11608">
        <ele>250.08</ele>
        <time>2025-03-07T14:34:19Z</time>
      </trkpt>
      <trkpt lat="44.40759" lon="1.11625">
        <ele>250.08</ele>
        <time>2025-03-07T14:34:36Z</time>
      </trkpt>
      <trkpt lat="44.40742" lon="1.11646">
        <ele>250.08</ele>
        <time>2025-03-07T14:34:55Z</time>
      </trkpt>
      <trkpt lat="44.40726" lon="1.11664">
        <ele>249.12</ele>
        <time>2025-03-07T14:35:12Z</time>
      </trkpt>
      <trkpt lat="44.40711" lon="1.11682">
        <ele>249.6</ele>
        <time>2025-03-07T14:35:29Z</time>
      </trkpt>
      <trkpt lat="44.40691" lon="1.11706">
        <ele>249.6</ele>
        <time>2025-03-07T14:35:50Z</time>
      </trkpt>
      <trkpt lat="44.40682" lon="1.11717">
        <ele>249.6</ele>
        <time>2025-03-07T14:35:59Z</time>
      </trkpt>
      <trkpt lat="44.40671" lon="1.11729">
        <ele>249.6</ele>
        <time>2025-03-07T14:36:10Z</time>
      </trkpt>
      <trkpt lat="44.40653" lon="1.11749">
        <ele>250.56</ele>
        <time>2025-03-07T14:36:29Z</time>
      </trkpt>
      <trkpt lat="44.40652" lon="1.1175">
        <ele>250.56</ele>
        <time>2025-03-07T14:36:30Z</time>
      </trkpt>
      <trkpt lat="44.4063" lon="1.11774">
        <ele>250.08</ele>
        <time>2025-03-07T14:36:52Z</time>
      </trkpt>
      <trkpt lat="44.4063" lon="1.11775">
        <ele>249.6</ele>
        <time>2025-03-07T14:36:53Z</time>
      </trkpt>
      <trkpt lat="44.40626" lon="1.11779">
        <ele>251.52</ele>
        <time>2025-03-07T14:36:57Z</time>
      </trkpt>
      <trkpt lat="44.40613" lon="1.11792">
        <ele>250.08</ele>
        <time>2025-03-07T14:37:11Z</time>
      </trkpt>
      <trkpt lat="44.40612" lon="1.11794">
        <ele>252</ele>
        <time>2025-03-07T14:37:13Z</time>
      </trkpt>
      <trkpt lat="44.40598" lon="1.1181">
        <ele>254.89</ele>
        <time>2025-03-07T14:37:28Z</time>
      </trkpt>
      <trkpt lat="44.40589" lon="1.11819">
        <ele>252.96</ele>
        <time>2025-03-07T14:37:39Z</time>
      </trkpt>
      <trkpt lat="44.40585" lon="1.11825">
        <ele>255.85</ele>
        <time>2025-03-07T14:37:44Z</time>
      </trkpt>
      <trkpt lat="44.40583" lon="1.11826">
        <ele>253.93</ele>
        <time>2025-03-07T14:37:46Z</time>
      </trkpt>
      <trkpt lat="44.40579" lon="1.11832">
        <ele>257.29</ele>
        <time>2025-03-07T14:37:51Z</time>
      </trkpt>
      <trkpt lat="44.40578" lon="1.11833">
        <ele>257.29</ele>
        <time>2025-03-07T14:37:52Z</time>
      </trkpt>
      <trkpt lat="44.40574" lon="1.1184">
        <ele>253.93</ele>
        <time>2025-03-07T14:37:57Z</time>
      </trkpt>
      <trkpt lat="44.4057" lon="1.11844">
        <ele>256.33</ele>
        <time>2025-03-07T14:38:01Z</time>
      </trkpt>
      <trkpt lat="44.40555" lon="1.11864">
        <ele>257.77</ele>
        <time>2025-03-07T14:38:20Z</time>
      </trkpt>
      <trkpt lat="44.40549" lon="1.11873">
        <ele>259.69</ele>
        <time>2025-03-07T14:38:29Z</time>
      </trkpt>
      <trkpt lat="44.40546" lon="1.11874">
        <ele>256.81</ele>
        <time>2025-03-07T14:38:32Z</time>
      </trkpt>
      <trkpt lat="44.40533" lon="1.11873">
        <ele>259.21</ele>
        <time>2025-03-07T14:38:43Z</time>
      </trkpt>
      <trkpt lat="44.40531" lon="1.11872">
        <ele>258.25</ele>
        <time>2025-03-07T14:38:45Z</time>
      </trkpt>
      <trkpt lat="44.40514" lon="1.11852">
        <ele>260.17</ele>
        <time>2025-03-07T14:39:04Z</time>
      </trkpt>
      <trkpt lat="44.40507" lon="1.11846">
        <ele>258.73</ele>
        <time>2025-03-07T14:39:11Z</time>
      </trkpt>
      <trkpt lat="44.40488" lon="1.11827">
        <ele>260.17</ele>
        <time>2025-03-07T14:39:31Z</time>
      </trkpt>
      <trkpt lat="44.40474" lon="1.11819">
        <ele>259.21</ele>
        <time>2025-03-07T14:39:46Z</time>
      </trkpt>
      <trkpt lat="44.40469" lon="1.11817">
        <ele>260.17</ele>
        <time>2025-03-07T14:39:59Z</time>
      </trkpt>
      <trkpt lat="44.40453" lon="1.11812">
        <ele>258.25</ele>
        <time>2025-03-07T14:40:14Z</time>
      </trkpt>
      <trkpt lat="44.40437" lon="1.11806">
        <ele>258.25</ele>
        <time>2025-03-07T14:40:30Z</time>
      </trkpt>
      <trkpt lat="44.40422" lon="1.11798">
        <ele>256.81</ele>
        <time>2025-03-07T14:40:47Z</time>
      </trkpt>
      <trkpt lat="44.4041" lon="1.11789">
        <ele>257.29</ele>
        <time>2025-03-07T14:41:03Z</time>
      </trkpt>
      <trkpt lat="44.40406" lon="1.11782">
        <ele>255.85</ele>
        <time>2025-03-07T14:41:14Z</time>
      </trkpt>
      <trkpt lat="44.40399" lon="1.1178">
        <ele>254.89</ele>
        <time>2025-03-07T14:41:27Z</time>
      </trkpt>
      <trkpt lat="44.40388" lon="1.11772">
        <ele>254.41</ele>
        <time>2025-03-07T14:41:41Z</time>
      </trkpt>
      <trkpt lat="44.40382" lon="1.11767">
        <ele>254.41</ele>
        <time>2025-03-07T14:41:48Z</time>
      </trkpt>
      <trkpt lat="44.40376" lon="1.11762">
        <ele>253.44</ele>
        <time>2025-03-07T14:41:56Z</time>
      </trkpt>
      <trkpt lat="44.40375" lon="1.11763">
        <ele>253.44</ele>
        <time>2025-03-07T14:41:58Z</time>
      </trkpt>
      <trkpt lat="44.40368" lon="1.11761">
        <ele>254.41</ele>
        <time>2025-03-07T14:42:05Z</time>
      </trkpt>
      <trkpt lat="44.40358" lon="1.11747">
        <ele>254.41</ele>
        <time>2025-03-07T14:42:20Z</time>
      </trkpt>
      <trkpt lat="44.40355" lon="1.11745">
        <ele>253.44</ele>
        <time>2025-03-07T14:42:23Z</time>
      </trkpt>
      <trkpt lat="44.40346" lon="1.11741">
        <ele>251.52</ele>
        <time>2025-03-07T14:42:33Z</time>
      </trkpt>
      <trkpt lat="44.40343" lon="1.11739">
        <ele>253.93</ele>
        <time>2025-03-07T14:42:36Z</time>
      </trkpt>
      <trkpt lat="44.40342" lon="1.11738">
        <ele>253.93</ele>
        <time>2025-03-07T14:42:37Z</time>
      </trkpt>
      <trkpt lat="44.40333" lon="1.11736">
        <ele>252.48</ele>
        <time>2025-03-07T14:42:45Z</time>
      </trkpt>
      <trkpt lat="44.40325" lon="1.11736">
        <ele>254.41</ele>
        <time>2025-03-07T14:42:52Z</time>
      </trkpt>
      <trkpt lat="44.40312" lon="1.11737">
        <ele>253.93</ele>
        <time>2025-03-07T14:43:04Z</time>
      </trkpt>
      <trkpt lat="44.40293" lon="1.11744">
        <ele>253.44</ele>
        <time>2025-03-07T14:43:22Z</time>
      </trkpt>
      <trkpt lat="44.40276" lon="1.11755">
        <ele>253.44</ele>
        <time>2025-03-07T14:43:39Z</time>
      </trkpt>
      <trkpt lat="44.40256" lon="1.11768">
        <ele>252</ele>
        <time>2025-03-07T14:43:58Z</time>
      </trkpt>
      <trkpt lat="44.40244" lon="1.11773">
        <ele>253.93</ele>
        <time>2025-03-07T14:44:09Z</time>
      </trkpt>
      <trkpt lat="44.40241" lon="1.11774">
        <ele>254.89</ele>
        <time>2025-03-07T14:44:12Z</time>
      </trkpt>
      <trkpt lat="44.40222" lon="1.11775">
        <ele>253.44</ele>
        <time>2025-03-07T14:44:29Z</time>
      </trkpt>
      <trkpt lat="44.40205" lon="1.11771">
        <ele>253.44</ele>
        <time>2025-03-07T14:44:45Z</time>
      </trkpt>
      <trkpt lat="44.40199" lon="1.11769">
        <ele>254.41</ele>
        <time>2025-03-07T14:44:50Z</time>
      </trkpt>
      <trkpt lat="44.40183" lon="1.11764">
        <ele>254.41</ele>
        <time>2025-03-07T14:45:05Z</time>
      </trkpt>
      <trkpt lat="44.40167" lon="1.11759">
        <ele>255.85</ele>
        <time>2025-03-07T14:45:21Z</time>
      </trkpt>
      <trkpt lat="44.40154" lon="1.11751">
        <ele>256.81</ele>
        <time>2025-03-07T14:45:39Z</time>
      </trkpt>
      <trkpt lat="44.40152" lon="1.11744">
        <ele>257.77</ele>
        <time>2025-03-07T14:45:46Z</time>
      </trkpt>
      <trkpt lat="44.40152" lon="1.1174">
        <ele>256.33</ele>
        <time>2025-03-07T14:45:50Z</time>
      </trkpt>
      <trkpt lat="44.40153" lon="1.1174">
        <ele>256.33</ele>
        <time>2025-03-07T14:45:51Z</time>
      </trkpt>
      <trkpt lat="44.4016" lon="1.11726">
        <ele>256.33</ele>
        <time>2025-03-07T14:46:02Z</time>
      </trkpt>
      <trkpt lat="44.40162" lon="1.11723">
        <ele>255.85</ele>
        <time>2025-03-07T14:46:05Z</time>
      </trkpt>
      <trkpt lat="44.40163" lon="1.11718">
        <ele>255.85</ele>
        <time>2025-03-07T14:46:09Z</time>
      </trkpt>
      <trkpt lat="44.40168" lon="1.11702">
        <ele>255.37</ele>
        <time>2025-03-07T14:46:22Z</time>
      </trkpt>
      <trkpt lat="44.40164" lon="1.11673">
        <ele>255.85</ele>
        <time>2025-03-07T14:46:40Z</time>
      </trkpt>
      <trkpt lat="44.40164" lon="1.11669">
        <ele>256.81</ele>
        <time>2025-03-07T14:46:42Z</time>
      </trkpt>
      <trkpt lat="44.40164" lon="1.11665">
        <ele>254.89</ele>
        <time>2025-03-07T14:46:45Z</time>
      </trkpt>
      <trkpt lat="44.40161" lon="1.11643">
        <ele>255.85</ele>
        <time>2025-03-07T14:46:59Z</time>
      </trkpt>
      <trkpt lat="44.40159" lon="1.11617">
        <ele>255.37</ele>
        <time>2025-03-07T14:47:15Z</time>
      </trkpt>
      <trkpt lat="44.40158" lon="1.11605">
        <ele>256.33</ele>
        <time>2025-03-07T14:47:23Z</time>
      </trkpt>
      <trkpt lat="44.40157" lon="1.11591">
        <ele>256.33</ele>
        <time>2025-03-07T14:47:35Z</time>
      </trkpt>
      <trkpt lat="44.40156" lon="1.11575">
        <ele>254.41</ele>
        <time>2025-03-07T14:47:47Z</time>
      </trkpt>
      <trkpt lat="44.40155" lon="1.1155">
        <ele>255.85</ele>
        <time>2025-03-07T14:48:04Z</time>
      </trkpt>
      <trkpt lat="44.40155" lon="1.11546">
        <ele>254.41</ele>
        <time>2025-03-07T14:48:07Z</time>
      </trkpt>
      <trkpt lat="44.40156" lon="1.11519">
        <ele>255.85</ele>
        <time>2025-03-07T14:48:24Z</time>
      </trkpt>
      <trkpt lat="44.40158" lon="1.11495">
        <ele>255.85</ele>
        <time>2025-03-07T14:48:39Z</time>
      </trkpt>
      <trkpt lat="44.4016" lon="1.11473">
        <ele>255.37</ele>
        <time>2025-03-07T14:48:53Z</time>
      </trkpt>
      <trkpt lat="44.40163" lon="1.11445">
        <ele>254.41</ele>
        <time>2025-03-07T14:49:11Z</time>
      </trkpt>
      <trkpt lat="44.40167" lon="1.11426">
        <ele>254.41</ele>
        <time>2025-03-07T14:49:26Z</time>
      </trkpt>
      <trkpt lat="44.40171" lon="1.11402">
        <ele>253.44</ele>
        <time>2025-03-07T14:49:41Z</time>
      </trkpt>
      <trkpt lat="44.40174" lon="1.11377">
        <ele>252</ele>
        <time>2025-03-07T14:49:57Z</time>
      </trkpt>
      <trkpt lat="44.40178" lon="1.11352">
        <ele>250.08</ele>
        <time>2025-03-07T14:50:13Z</time>
      </trkpt>
      <trkpt lat="44.40181" lon="1.11329">
        <ele>248.16</ele>
        <time>2025-03-07T14:50:28Z</time>
      </trkpt>
      <trkpt lat="44.40185" lon="1.113">
        <ele>246.72</ele>
        <time>2025-03-07T14:50:46Z</time>
      </trkpt>
      <trkpt lat="44.40189" lon="1.11275">
        <ele>244.79</ele>
        <time>2025-03-07T14:51:02Z</time>
      </trkpt>
      <trkpt lat="44.40194" lon="1.11249">
        <ele>243.35</ele>
        <time>2025-03-07T14:51:19Z</time>
      </trkpt>
      <trkpt lat="44.40201" lon="1.1122">
        <ele>242.39</ele>
        <time>2025-03-07T14:51:37Z</time>
      </trkpt>
      <trkpt lat="44.40204" lon="1.11209">
        <ele>243.83</ele>
        <time>2025-03-07T14:51:44Z</time>
      </trkpt>
      <trkpt lat="44.40214" lon="1.11176">
        <ele>243.83</ele>
        <time>2025-03-07T14:52:06Z</time>
      </trkpt>
      <trkpt lat="44.40223" lon="1.11148">
        <ele>243.35</ele>
        <time>2025-03-07T14:52:25Z</time>
      </trkpt>
      <trkpt lat="44.40226" lon="1.11141">
        <ele>242.39</ele>
        <time>2025-03-07T14:52:30Z</time>
      </trkpt>
      <trkpt lat="44.40233" lon="1.11125">
        <ele>242.87</ele>
        <time>2025-03-07T14:52:42Z</time>
      </trkpt>
      <trkpt lat="44.40242" lon="1.11098">
        <ele>242.87</ele>
        <time>2025-03-07T14:53:00Z</time>
      </trkpt>
      <trkpt lat="44.40247" lon="1.11083">
        <ele>241.91</ele>
        <time>2025-03-07T14:53:10Z</time>
      </trkpt>
      <trkpt lat="44.40254" lon="1.11055">
        <ele>241.91</ele>
        <time>2025-03-07T14:53:29Z</time>
      </trkpt>
      <trkpt lat="44.40255" lon="1.1105">
        <ele>243.35</ele>
        <time>2025-03-07T14:53:32Z</time>
      </trkpt>
      <trkpt lat="44.40264" lon="1.1102">
        <ele>241.91</ele>
        <time>2025-03-07T14:53:52Z</time>
      </trkpt>
      <trkpt lat="44.40274" lon="1.10992">
        <ele>241.91</ele>
        <time>2025-03-07T14:54:11Z</time>
      </trkpt>
      <trkpt lat="44.40284" lon="1.10967">
        <ele>241.43</ele>
        <time>2025-03-07T14:54:28Z</time>
      </trkpt>
      <trkpt lat="44.40298" lon="1.1094">
        <ele>241.43</ele>
        <time>2025-03-07T14:54:49Z</time>
      </trkpt>
      <trkpt lat="44.40313" lon="1.10916">
        <ele>241.43</ele>
        <time>2025-03-07T14:55:08Z</time>
      </trkpt>
      <trkpt lat="44.40332" lon="1.10893">
        <ele>240.95</ele>
        <time>2025-03-07T14:55:29Z</time>
      </trkpt>
      <trkpt lat="44.40351" lon="1.10872">
        <ele>240.95</ele>
        <time>2025-03-07T14:55:49Z</time>
      </trkpt>
      <trkpt lat="44.4037" lon="1.10853">
        <ele>240.47</ele>
        <time>2025-03-07T14:56:09Z</time>
      </trkpt>
      <trkpt lat="44.40386" lon="1.1083">
        <ele>240.47</ele>
        <time>2025-03-07T14:56:28Z</time>
      </trkpt>
      <trkpt lat="44.40401" lon="1.10808">
        <ele>240.47</ele>
        <time>2025-03-07T14:56:46Z</time>
      </trkpt>
      <trkpt lat="44.40415" lon="1.10787">
        <ele>240.47</ele>
        <time>2025-03-07T14:57:03Z</time>
      </trkpt>
      <trkpt lat="44.40428" lon="1.10765">
        <ele>239.99</ele>
        <time>2025-03-07T14:57:20Z</time>
      </trkpt>
      <trkpt lat="44.40444" lon="1.10741">
        <ele>239.51</ele>
        <time>2025-03-07T14:57:39Z</time>
      </trkpt>
      <trkpt lat="44.40457" lon="1.10717">
        <ele>239.51</ele>
        <time>2025-03-07T14:57:57Z</time>
      </trkpt>
      <trkpt lat="44.40467" lon="1.10698">
        <ele>238.06</ele>
        <time>2025-03-07T14:58:10Z</time>
      </trkpt>
      <trkpt lat="44.40477" lon="1.10671">
        <ele>239.51</ele>
        <time>2025-03-07T14:58:27Z</time>
      </trkpt>
      <trkpt lat="44.40488" lon="1.10647">
        <ele>237.58</ele>
        <time>2025-03-07T14:58:44Z</time>
      </trkpt>
      <trkpt lat="44.40503" lon="1.10617">
        <ele>237.58</ele>
        <time>2025-03-07T14:59:06Z</time>
      </trkpt>
      <trkpt lat="44.40504" lon="1.10614">
        <ele>239.02</ele>
        <time>2025-03-07T14:59:08Z</time>
      </trkpt>
      <trkpt lat="44.40516" lon="1.10589">
        <ele>239.51</ele>
        <time>2025-03-07T14:59:26Z</time>
      </trkpt>
      <trkpt lat="44.40525" lon="1.10566">
        <ele>240.47</ele>
        <time>2025-03-07T14:59:43Z</time>
      </trkpt>
      <trkpt lat="44.40536" lon="1.10535">
        <ele>240.95</ele>
        <time>2025-03-07T15:00:03Z</time>
      </trkpt>
      <trkpt lat="44.40547" lon="1.10506">
        <ele>241.91</ele>
        <time>2025-03-07T15:00:24Z</time>
      </trkpt>
      <trkpt lat="44.40555" lon="1.10477">
        <ele>242.39</ele>
        <time>2025-03-07T15:00:43Z</time>
      </trkpt>
      <trkpt lat="44.40564" lon="1.10449">
        <ele>243.35</ele>
        <time>2025-03-07T15:01:02Z</time>
      </trkpt>
      <trkpt lat="44.40571" lon="1.10432">
        <ele>243.35</ele>
        <time>2025-03-07T15:01:18Z</time>
      </trkpt>
      <trkpt lat="44.40572" lon="1.10427">
        <ele>243.35</ele>
        <time>2025-03-07T15:01:29Z</time>
      </trkpt>
      <trkpt lat="44.40576" lon="1.10409">
        <ele>243.83</ele>
        <time>2025-03-07T15:01:43Z</time>
      </trkpt>
      <trkpt lat="44.40582" lon="1.10385">
        <ele>242.39</ele>
        <time>2025-03-07T15:02:00Z</time>
      </trkpt>
      <trkpt lat="44.40591" lon="1.10358">
        <ele>241.91</ele>
        <time>2025-03-07T15:02:19Z</time>
      </trkpt>
      <trkpt lat="44.40597" lon="1.10332">
        <ele>241.91</ele>
        <time>2025-03-07T15:02:36Z</time>
      </trkpt>
      <trkpt lat="44.40603" lon="1.10305">
        <ele>241.91</ele>
        <time>2025-03-07T15:02:53Z</time>
      </trkpt>
      <trkpt lat="44.4061" lon="1.10281">
        <ele>242.87</ele>
        <time>2025-03-07T15:03:09Z</time>
      </trkpt>
      <trkpt lat="44.40616" lon="1.10255">
        <ele>242.87</ele>
        <time>2025-03-07T15:03:25Z</time>
      </trkpt>
      <trkpt lat="44.40622" lon="1.10228">
        <ele>243.83</ele>
        <time>2025-03-07T15:03:42Z</time>
      </trkpt>
      <trkpt lat="44.40628" lon="1.102">
        <ele>244.79</ele>
        <time>2025-03-07T15:04:00Z</time>
      </trkpt>
      <trkpt lat="44.40634" lon="1.10176">
        <ele>245.27</ele>
        <time>2025-03-07T15:04:16Z</time>
      </trkpt>
      <trkpt lat="44.4064" lon="1.10148">
        <ele>245.75</ele>
        <time>2025-03-07T15:04:34Z</time>
      </trkpt>
      <trkpt lat="44.40641" lon="1.10142">
        <ele>246.23</ele>
        <time>2025-03-07T15:04:38Z</time>
      </trkpt>
      <trkpt lat="44.40646" lon="1.1011">
        <ele>247.2</ele>
        <time>2025-03-07T15:04:57Z</time>
      </trkpt>
      <trkpt lat="44.40651" lon="1.10083">
        <ele>245.75</ele>
        <time>2025-03-07T15:05:13Z</time>
      </trkpt>
      <trkpt lat="44.40654" lon="1.10052">
        <ele>244.31</ele>
        <time>2025-03-07T15:05:31Z</time>
      </trkpt>
      <trkpt lat="44.40656" lon="1.10022">
        <ele>244.31</ele>
        <time>2025-03-07T15:05:48Z</time>
      </trkpt>
      <trkpt lat="44.40659" lon="1.09994">
        <ele>243.83</ele>
        <time>2025-03-07T15:06:04Z</time>
      </trkpt>
      <trkpt lat="44.40663" lon="1.09965">
        <ele>243.83</ele>
        <time>2025-03-07T15:06:21Z</time>
      </trkpt>
      <trkpt lat="44.40668" lon="1.09938">
        <ele>243.83</ele>
        <time>2025-03-07T15:06:38Z</time>
      </trkpt>
      <trkpt lat="44.40675" lon="1.09909">
        <ele>243.83</ele>
        <time>2025-03-07T15:06:56Z</time>
      </trkpt>
      <trkpt lat="44.40679" lon="1.09888">
        <ele>246.23</ele>
        <time>2025-03-07T15:07:09Z</time>
      </trkpt>
      <trkpt lat="44.40679" lon="1.09884">
        <ele>244.31</ele>
        <time>2025-03-07T15:07:12Z</time>
      </trkpt>
      <trkpt lat="44.4068" lon="1.09858">
        <ele>244.31</ele>
        <time>2025-03-07T15:07:30Z</time>
      </trkpt>
      <trkpt lat="44.40678" lon="1.09864">
        <ele>243.83</ele>
        <time>2025-03-07T15:07:47Z</time>
      </trkpt>
      <trkpt lat="44.40678" lon="1.09863">
        <ele>245.27</ele>
        <time>2025-03-07T15:07:57Z</time>
      </trkpt>
      <trkpt lat="44.4068" lon="1.09863">
        <ele>243.83</ele>
        <time>2025-03-07T15:08:05Z</time>
      </trkpt>
      <trkpt lat="44.4068" lon="1.09862">
        <ele>243.35</ele>
        <time>2025-03-07T15:08:16Z</time>
      </trkpt>
      <trkpt lat="44.40682" lon="1.0986">
        <ele>243.35</ele>
        <time>2025-03-07T15:08:42Z</time>
      </trkpt>
      <trkpt lat="44.40681" lon="1.0986">
        <ele>243.35</ele>
        <time>2025-03-07T15:09:13Z</time>
      </trkpt>
      <trkpt lat="44.40682" lon="1.09859">
        <ele>243.35</ele>
        <time>2025-03-07T15:09:50Z</time>
      </trkpt>
      <trkpt lat="44.40682" lon="1.0986">
        <ele>244.31</ele>
        <time>2025-03-07T15:10:23Z</time>
      </trkpt>
      <trkpt lat="44.4068" lon="1.0986">
        <ele>244.31</ele>
        <time>2025-03-07T15:10:57Z</time>
      </trkpt>
      <trkpt lat="44.40681" lon="1.09862">
        <ele>244.79</ele>
        <time>2025-03-07T15:11:17Z</time>
      </trkpt>
      <trkpt lat="44.4068" lon="1.09861">
        <ele>244.79</ele>
        <time>2025-03-07T15:11:18Z</time>
      </trkpt>
      <trkpt lat="44.40675" lon="1.0985">
        <ele>245.75</ele>
        <time>2025-03-07T15:11:30Z</time>
      </trkpt>
      <trkpt lat="44.40671" lon="1.09848">
        <ele>245.75</ele>
        <time>2025-03-07T15:11:35Z</time>
      </trkpt>
      <trkpt lat="44.40658" lon="1.09854">
        <ele>246.23</ele>
        <time>2025-03-07T15:11:50Z</time>
      </trkpt>
      <trkpt lat="44.40657" lon="1.09856">
        <ele>245.27</ele>
        <time>2025-03-07T15:11:52Z</time>
      </trkpt>
      <trkpt lat="44.40646" lon="1.09863">
        <ele>245.27</ele>
        <time>2025-03-07T15:12:07Z</time>
      </trkpt>
      <trkpt lat="44.40639" lon="1.09867">
        <ele>245.27</ele>
        <time>2025-03-07T15:12:15Z</time>
      </trkpt>
      <trkpt lat="44.40625" lon="1.09876">
        <ele>245.27</ele>
        <time>2025-03-07T15:12:31Z</time>
      </trkpt>
      <trkpt lat="44.40623" lon="1.09878">
        <ele>246.72</ele>
        <time>2025-03-07T15:12:34Z</time>
      </trkpt>
      <trkpt lat="44.40612" lon="1.09886">
        <ele>246.72</ele>
        <time>2025-03-07T15:12:48Z</time>
      </trkpt>
      <trkpt lat="44.40602" lon="1.09894">
        <ele>246.72</ele>
        <time>2025-03-07T15:13:01Z</time>
      </trkpt>
      <trkpt lat="44.40584" lon="1.09906">
        <ele>246.72</ele>
        <time>2025-03-07T15:13:20Z</time>
      </trkpt>
      <trkpt lat="44.40572" lon="1.09911">
        <ele>246.72</ele>
        <time>2025-03-07T15:13:32Z</time>
      </trkpt>
      <trkpt lat="44.40561" lon="1.09916">
        <ele>247.68</ele>
        <time>2025-03-07T15:13:42Z</time>
      </trkpt>
      <trkpt lat="44.40546" lon="1.09926">
        <ele>247.68</ele>
        <time>2025-03-07T15:13:57Z</time>
      </trkpt>
      <trkpt lat="44.40532" lon="1.09933">
        <ele>248.64</ele>
        <time>2025-03-07T15:14:11Z</time>
      </trkpt>
      <trkpt lat="44.40516" lon="1.09945">
        <ele>249.12</ele>
        <time>2025-03-07T15:14:28Z</time>
      </trkpt>
      <trkpt lat="44.40515" lon="1.09945">
        <ele>249.12</ele>
        <time>2025-03-07T15:14:29Z</time>
      </trkpt>
      <trkpt lat="44.40512" lon="1.09947">
        <ele>247.68</ele>
        <time>2025-03-07T15:14:32Z</time>
      </trkpt>
      <trkpt lat="44.40509" lon="1.09949">
        <ele>247.68</ele>
        <time>2025-03-07T15:14:35Z</time>
      </trkpt>
      <trkpt lat="44.40492" lon="1.09961">
        <ele>247.68</ele>
        <time>2025-03-07T15:14:51Z</time>
      </trkpt>
      <trkpt lat="44.40483" lon="1.09968">
        <ele>248.16</ele>
        <time>2025-03-07T15:15:00Z</time>
      </trkpt>
      <trkpt lat="44.40474" lon="1.09974">
        <ele>248.64</ele>
        <time>2025-03-07T15:15:09Z</time>
      </trkpt>
      <trkpt lat="44.4046" lon="1.09981">
        <ele>246.23</ele>
        <time>2025-03-07T15:15:21Z</time>
      </trkpt>
      <trkpt lat="44.40448" lon="1.09989">
        <ele>245.27</ele>
        <time>2025-03-07T15:15:32Z</time>
      </trkpt>
      <trkpt lat="44.40427" lon="1.09999">
        <ele>244.79</ele>
        <time>2025-03-07T15:15:52Z</time>
      </trkpt>
      <trkpt lat="44.40407" lon="1.10005">
        <ele>243.35</ele>
        <time>2025-03-07T15:16:09Z</time>
      </trkpt>
      <trkpt lat="44.40382" lon="1.10005">
        <ele>241.43</ele>
        <time>2025-03-07T15:16:28Z</time>
      </trkpt>
      <trkpt lat="44.4038" lon="1.10005">
        <ele>239.99</ele>
        <time>2025-03-07T15:16:30Z</time>
      </trkpt>
      <trkpt lat="44.4037" lon="1.10002">
        <ele>240.47</ele>
        <time>2025-03-07T15:16:39Z</time>
      </trkpt>
      <trkpt lat="44.4035" lon="1.10002">
        <ele>241.91</ele>
        <time>2025-03-07T15:16:55Z</time>
      </trkpt>
      <trkpt lat="44.40329" lon="1.10002">
        <ele>242.39</ele>
        <time>2025-03-07T15:17:12Z</time>
      </trkpt>
      <trkpt lat="44.40311" lon="1.10014">
        <ele>244.31</ele>
        <time>2025-03-07T15:17:29Z</time>
      </trkpt>
      <trkpt lat="44.40301" lon="1.10035">
        <ele>245.27</ele>
        <time>2025-03-07T15:17:45Z</time>
      </trkpt>
      <trkpt lat="44.40289" lon="1.10054">
        <ele>245.27</ele>
        <time>2025-03-07T15:18:01Z</time>
      </trkpt>
      <trkpt lat="44.40279" lon="1.10066">
        <ele>245.75</ele>
        <time>2025-03-07T15:18:13Z</time>
      </trkpt>
      <trkpt lat="44.40276" lon="1.10068">
        <ele>244.31</ele>
        <time>2025-03-07T15:18:16Z</time>
      </trkpt>
      <trkpt lat="44.40274" lon="1.10072">
        <ele>246.23</ele>
        <time>2025-03-07T15:18:19Z</time>
      </trkpt>
      <trkpt lat="44.40256" lon="1.1009">
        <ele>248.16</ele>
        <time>2025-03-07T15:18:37Z</time>
      </trkpt>
      <trkpt lat="44.4024" lon="1.10108">
        <ele>249.6</ele>
        <time>2025-03-07T15:18:54Z</time>
      </trkpt>
      <trkpt lat="44.40221" lon="1.10127">
        <ele>250.56</ele>
        <time>2025-03-07T15:19:14Z</time>
      </trkpt>
      <trkpt lat="44.40201" lon="1.10143">
        <ele>251.52</ele>
        <time>2025-03-07T15:19:32Z</time>
      </trkpt>
      <trkpt lat="44.4018" lon="1.10162">
        <ele>251.52</ele>
        <time>2025-03-07T15:19:52Z</time>
      </trkpt>
      <trkpt lat="44.4016" lon="1.10178">
        <ele>252.48</ele>
        <time>2025-03-07T15:20:10Z</time>
      </trkpt>
      <trkpt lat="44.40142" lon="1.10192">
        <ele>252.48</ele>
        <time>2025-03-07T15:20:27Z</time>
      </trkpt>
      <trkpt lat="44.40132" lon="1.102">
        <ele>253.44</ele>
        <time>2025-03-07T15:20:37Z</time>
      </trkpt>
      <trkpt lat="44.40114" lon="1.10212">
        <ele>253.44</ele>
        <time>2025-03-07T15:20:56Z</time>
      </trkpt>
      <trkpt lat="44.40098" lon="1.10223">
        <ele>254.41</ele>
        <time>2025-03-07T15:21:12Z</time>
      </trkpt>
      <trkpt lat="44.40093" lon="1.10227">
        <ele>254.41</ele>
        <time>2025-03-07T15:21:18Z</time>
      </trkpt>
      <trkpt lat="44.40076" lon="1.10237">
        <ele>254.89</ele>
        <time>2025-03-07T15:21:35Z</time>
      </trkpt>
      <trkpt lat="44.40057" lon="1.10249">
        <ele>254.89</ele>
        <time>2025-03-07T15:21:53Z</time>
      </trkpt>
      <trkpt lat="44.4004" lon="1.10259">
        <ele>255.37</ele>
        <time>2025-03-07T15:22:09Z</time>
      </trkpt>
      <trkpt lat="44.40022" lon="1.10269">
        <ele>255.85</ele>
        <time>2025-03-07T15:22:25Z</time>
      </trkpt>
      <trkpt lat="44.40004" lon="1.10279">
        <ele>255.85</ele>
        <time>2025-03-07T15:22:41Z</time>
      </trkpt>
      <trkpt lat="44.39984" lon="1.1029">
        <ele>255.37</ele>
        <time>2025-03-07T15:23:00Z</time>
      </trkpt>
      <trkpt lat="44.39971" lon="1.10295">
        <ele>255.37</ele>
        <time>2025-03-07T15:23:15Z</time>
      </trkpt>
      <trkpt lat="44.39968" lon="1.10295">
        <ele>254.41</ele>
        <time>2025-03-07T15:23:20Z</time>
      </trkpt>
      <trkpt lat="44.39951" lon="1.10309">
        <ele>254.41</ele>
        <time>2025-03-07T15:23:36Z</time>
      </trkpt>
      <trkpt lat="44.39929" lon="1.10321">
        <ele>254.41</ele>
        <time>2025-03-07T15:23:54Z</time>
      </trkpt>
      <trkpt lat="44.39909" lon="1.10331">
        <ele>254.41</ele>
        <time>2025-03-07T15:24:12Z</time>
      </trkpt>
      <trkpt lat="44.39905" lon="1.10331">
        <ele>255.37</ele>
        <time>2025-03-07T15:24:15Z</time>
      </trkpt>
      <trkpt lat="44.39884" lon="1.10342">
        <ele>256.81</ele>
        <time>2025-03-07T15:24:33Z</time>
      </trkpt>
      <trkpt lat="44.39871" lon="1.10348">
        <ele>257.29</ele>
        <time>2025-03-07T15:24:50Z</time>
      </trkpt>
      <trkpt lat="44.39854" lon="1.10353">
        <ele>258.25</ele>
        <time>2025-03-07T15:25:05Z</time>
      </trkpt>
      <trkpt lat="44.39838" lon="1.10361">
        <ele>258.73</ele>
        <time>2025-03-07T15:25:22Z</time>
      </trkpt>
      <trkpt lat="44.39819" lon="1.1037">
        <ele>260.65</ele>
        <time>2025-03-07T15:25:39Z</time>
      </trkpt>
      <trkpt lat="44.3981" lon="1.10374">
        <ele>262.1</ele>
        <time>2025-03-07T15:25:47Z</time>
      </trkpt>
      <trkpt lat="44.39808" lon="1.10375">
        <ele>260.65</ele>
        <time>2025-03-07T15:25:49Z</time>
      </trkpt>
      <trkpt lat="44.39803" lon="1.10376">
        <ele>262.1</ele>
        <time>2025-03-07T15:25:53Z</time>
      </trkpt>
      <trkpt lat="44.39781" lon="1.10383">
        <ele>262.1</ele>
        <time>2025-03-07T15:26:12Z</time>
      </trkpt>
      <trkpt lat="44.39778" lon="1.10385">
        <ele>260.65</ele>
        <time>2025-03-07T15:26:15Z</time>
      </trkpt>
      <trkpt lat="44.39756" lon="1.1039">
        <ele>260.17</ele>
        <time>2025-03-07T15:26:34Z</time>
      </trkpt>
      <trkpt lat="44.39731" lon="1.10394">
        <ele>259.69</ele>
        <time>2025-03-07T15:26:54Z</time>
      </trkpt>
      <trkpt lat="44.39714" lon="1.10396">
        <ele>259.21</ele>
        <time>2025-03-07T15:27:09Z</time>
      </trkpt>
      <trkpt lat="44.39697" lon="1.10395">
        <ele>258.73</ele>
        <time>2025-03-07T15:27:23Z</time>
      </trkpt>
      <trkpt lat="44.39674" lon="1.10392">
        <ele>257.77</ele>
        <time>2025-03-07T15:27:41Z</time>
      </trkpt>
      <trkpt lat="44.39672" lon="1.10391">
        <ele>259.21</ele>
        <time>2025-03-07T15:27:43Z</time>
      </trkpt>
      <trkpt lat="44.39651" lon="1.10387">
        <ele>259.21</ele>
        <time>2025-03-07T15:28:00Z</time>
      </trkpt>
      <trkpt lat="44.3963" lon="1.10385">
        <ele>260.17</ele>
        <time>2025-03-07T15:28:17Z</time>
      </trkpt>
      <trkpt lat="44.39626" lon="1.10384">
        <ele>258.25</ele>
        <time>2025-03-07T15:28:20Z</time>
      </trkpt>
      <trkpt lat="44.39616" lon="1.10383">
        <ele>261.62</ele>
        <time>2025-03-07T15:28:29Z</time>
      </trkpt>
      <trkpt lat="44.39614" lon="1.10383">
        <ele>262.58</ele>
        <time>2025-03-07T15:28:31Z</time>
      </trkpt>
      <trkpt lat="44.39613" lon="1.10383">
        <ele>262.58</ele>
        <time>2025-03-07T15:28:32Z</time>
      </trkpt>
      <trkpt lat="44.39609" lon="1.10385">
        <ele>261.62</ele>
        <time>2025-03-07T15:28:36Z</time>
      </trkpt>
      <trkpt lat="44.39604" lon="1.10386">
        <ele>258.73</ele>
        <time>2025-03-07T15:28:40Z</time>
      </trkpt>
      <trkpt lat="44.396" lon="1.10388">
        <ele>261.62</ele>
        <time>2025-03-07T15:28:43Z</time>
      </trkpt>
      <trkpt lat="44.39593" lon="1.10392">
        <ele>257.77</ele>
        <time>2025-03-07T15:28:49Z</time>
      </trkpt>
      <trkpt lat="44.3959" lon="1.10394">
        <ele>261.62</ele>
        <time>2025-03-07T15:28:52Z</time>
      </trkpt>
      <trkpt lat="44.39566" lon="1.10404">
        <ele>261.62</ele>
        <time>2025-03-07T15:29:13Z</time>
      </trkpt>
      <trkpt lat="44.39549" lon="1.10414">
        <ele>260.17</ele>
        <time>2025-03-07T15:29:28Z</time>
      </trkpt>
      <trkpt lat="44.39528" lon="1.10425">
        <ele>260.17</ele>
        <time>2025-03-07T15:29:46Z</time>
      </trkpt>
      <trkpt lat="44.39519" lon="1.10429">
        <ele>261.62</ele>
        <time>2025-03-07T15:29:55Z</time>
      </trkpt>
      <trkpt lat="44.39517" lon="1.10429">
        <ele>261.62</ele>
        <time>2025-03-07T15:29:57Z</time>
      </trkpt>
      <trkpt lat="44.39511" lon="1.10428">
        <ele>261.62</ele>
        <time>2025-03-07T15:30:02Z</time>
      </trkpt>
      <trkpt lat="44.39491" lon="1.10409">
        <ele>260.17</ele>
        <time>2025-03-07T15:30:23Z</time>
      </trkpt>
      <trkpt lat="44.39469" lon="1.10416">
        <ele>256.81</ele>
        <time>2025-03-07T15:30:42Z</time>
      </trkpt>
      <trkpt lat="44.39468" lon="1.10417">
        <ele>256.81</ele>
        <time>2025-03-07T15:30:43Z</time>
      </trkpt>
      <trkpt lat="44.39468" lon="1.10418">
        <ele>256.81</ele>
        <time>2025-03-07T15:30:44Z</time>
      </trkpt>
      <trkpt lat="44.39466" lon="1.10425">
        <ele>260.17</ele>
        <time>2025-03-07T15:30:49Z</time>
      </trkpt>
      <trkpt lat="44.39466" lon="1.10433">
        <ele>260.17</ele>
        <time>2025-03-07T15:30:55Z</time>
      </trkpt>
      <trkpt lat="44.3947" lon="1.10448">
        <ele>260.65</ele>
        <time>2025-03-07T15:31:08Z</time>
      </trkpt>
      <trkpt lat="44.39471" lon="1.1045">
        <ele>259.69</ele>
        <time>2025-03-07T15:31:20Z</time>
      </trkpt>
      <trkpt lat="44.39473" lon="1.10448">
        <ele>259.69</ele>
        <time>2025-03-07T15:31:29Z</time>
      </trkpt>
      <trkpt lat="44.39476" lon="1.10448">
        <ele>259.69</ele>
        <time>2025-03-07T15:31:36Z</time>
      </trkpt>
      <trkpt lat="44.39474" lon="1.10449">
        <ele>261.14</ele>
        <time>2025-03-07T15:31:38Z</time>
      </trkpt>
      <trkpt lat="44.3947" lon="1.10451">
        <ele>259.21</ele>
        <time>2025-03-07T15:31:45Z</time>
      </trkpt>
      <trkpt lat="44.39471" lon="1.10458">
        <ele>259.69</ele>
        <time>2025-03-07T15:31:54Z</time>
      </trkpt>
      <trkpt lat="44.39471" lon="1.10456">
        <ele>258.73</ele>
        <time>2025-03-07T15:31:58Z</time>
      </trkpt>
      <trkpt lat="44.39471" lon="1.10459">
        <ele>256.33</ele>
        <time>2025-03-07T15:32:00Z</time>
      </trkpt>
      <trkpt lat="44.39472" lon="1.10463">
        <ele>257.77</ele>
        <time>2025-03-07T15:32:02Z</time>
      </trkpt>
      <trkpt lat="44.39474" lon="1.10475">
        <ele>259.21</ele>
        <time>2025-03-07T15:32:10Z</time>
      </trkpt>
      <trkpt lat="44.39477" lon="1.10476">
        <ele>261.14</ele>
        <time>2025-03-07T15:32:15Z</time>
      </trkpt>
      <trkpt lat="44.39478" lon="1.10476">
        <ele>259.21</ele>
        <time>2025-03-07T15:32:25Z</time>
      </trkpt>
      <trkpt lat="44.39473" lon="1.10475">
        <ele>260.17</ele>
        <time>2025-03-07T15:32:36Z</time>
      </trkpt>
      <trkpt lat="44.39472" lon="1.10472">
        <ele>258.73</ele>
        <time>2025-03-07T15:32:40Z</time>
      </trkpt>
      <trkpt lat="44.39473" lon="1.10464">
        <ele>258.25</ele>
        <time>2025-03-07T15:32:48Z</time>
      </trkpt>
      <trkpt lat="44.39473" lon="1.10464">
        <ele>259.21</ele>
        <time>2025-03-07T15:32:50Z</time>
      </trkpt>
      <trkpt lat="44.39472" lon="1.10457">
        <ele>260.17</ele>
        <time>2025-03-07T15:33:02Z</time>
      </trkpt>
      <trkpt lat="44.3947" lon="1.10455">
        <ele>260.65</ele>
        <time>2025-03-07T15:33:18Z</time>
      </trkpt>
      <trkpt lat="44.39469" lon="1.10453">
        <ele>259.21</ele>
        <time>2025-03-07T15:33:30Z</time>
      </trkpt>
      <trkpt lat="44.39469" lon="1.10452">
        <ele>258.25</ele>
        <time>2025-03-07T15:33:37Z</time>
      </trkpt>
      <trkpt lat="44.3947" lon="1.1045">
        <ele>259.21</ele>
        <time>2025-03-07T15:33:39Z</time>
      </trkpt>
      <trkpt lat="44.39475" lon="1.1045">
        <ele>260.17</ele>
        <time>2025-03-07T15:33:53Z</time>
      </trkpt>
      <trkpt lat="44.39475" lon="1.10449">
        <ele>260.17</ele>
        <time>2025-03-07T15:33:57Z</time>
      </trkpt>
      <trkpt lat="44.39467" lon="1.1044">
        <ele>260.65</ele>
        <time>2025-03-07T15:34:08Z</time>
      </trkpt>
      <trkpt lat="44.39467" lon="1.10435">
        <ele>259.21</ele>
        <time>2025-03-07T15:34:11Z</time>
      </trkpt>
      <trkpt lat="44.39465" lon="1.10412">
        <ele>258.73</ele>
        <time>2025-03-07T15:34:28Z</time>
      </trkpt>
      <trkpt lat="44.39469" lon="1.10411">
        <ele>258.73</ele>
        <time>2025-03-07T15:34:42Z</time>
      </trkpt>
      <trkpt lat="44.39475" lon="1.10411">
        <ele>258.73</ele>
        <time>2025-03-07T15:34:57Z</time>
      </trkpt>
      <trkpt lat="44.3948" lon="1.1041">
        <ele>260.17</ele>
        <time>2025-03-07T15:35:02Z</time>
      </trkpt>
      <trkpt lat="44.39497" lon="1.10411">
        <ele>260.65</ele>
        <time>2025-03-07T15:35:19Z</time>
      </trkpt>
      <trkpt lat="44.39499" lon="1.10413">
        <ele>260.65</ele>
        <time>2025-03-07T15:35:31Z</time>
      </trkpt>
      <trkpt lat="44.39499" lon="1.10411">
        <ele>259.21</ele>
        <time>2025-03-07T15:35:48Z</time>
      </trkpt>
      <trkpt lat="44.395" lon="1.10411">
        <ele>260.65</ele>
        <time>2025-03-07T15:35:51Z</time>
      </trkpt>
      <trkpt lat="44.39501" lon="1.10412">
        <ele>259.69</ele>
        <time>2025-03-07T15:36:00Z</time>
      </trkpt>
      <trkpt lat="44.395" lon="1.10412">
        <ele>259.69</ele>
        <time>2025-03-07T15:36:08Z</time>
      </trkpt>
      <trkpt lat="44.395" lon="1.10412">
        <ele>259.69</ele>
        <time>2025-03-07T15:36:22Z</time>
      </trkpt>
      <trkpt lat="44.39507" lon="1.10423">
        <ele>259.69</ele>
        <time>2025-03-07T15:36:36Z</time>
      </trkpt>
      <trkpt lat="44.395" lon="1.10446">
        <ele>258.73</ele>
        <time>2025-03-07T15:36:54Z</time>
      </trkpt>
      <trkpt lat="44.39497" lon="1.10451">
        <ele>259.21</ele>
        <time>2025-03-07T15:36:59Z</time>
      </trkpt>
      <trkpt lat="44.39505" lon="1.10481">
        <ele>260.17</ele>
        <time>2025-03-07T15:37:17Z</time>
      </trkpt>
      <trkpt lat="44.39507" lon="1.10501">
        <ele>259.69</ele>
        <time>2025-03-07T15:37:29Z</time>
      </trkpt>
      <trkpt lat="44.39507" lon="1.10513">
        <ele>258.73</ele>
        <time>2025-03-07T15:37:42Z</time>
      </trkpt>
      <trkpt lat="44.39508" lon="1.10524">
        <ele>258.73</ele>
        <time>2025-03-07T15:37:50Z</time>
      </trkpt>
      <trkpt lat="44.39506" lon="1.10539">
        <ele>258.73</ele>
        <time>2025-03-07T15:38:01Z</time>
      </trkpt>
      <trkpt lat="44.39507" lon="1.10544">
        <ele>260.17</ele>
        <time>2025-03-07T15:38:10Z</time>
      </trkpt>
      <trkpt lat="44.39506" lon="1.1056">
        <ele>259.69</ele>
        <time>2025-03-07T15:38:19Z</time>
      </trkpt>
      <trkpt lat="44.39505" lon="1.1059">
        <ele>261.62</ele>
        <time>2025-03-07T15:38:36Z</time>
      </trkpt>
      <trkpt lat="44.39505" lon="1.10608">
        <ele>261.14</ele>
        <time>2025-03-07T15:38:46Z</time>
      </trkpt>
      <trkpt lat="44.39506" lon="1.10641">
        <ele>261.14</ele>
        <time>2025-03-07T15:39:04Z</time>
      </trkpt>
      <trkpt lat="44.3951" lon="1.10673">
        <ele>262.1</ele>
        <time>2025-03-07T15:39:23Z</time>
      </trkpt>
      <trkpt lat="44.39514" lon="1.10687">
        <ele>262.58</ele>
        <time>2025-03-07T15:39:32Z</time>
      </trkpt>
      <trkpt lat="44.3952" lon="1.10711">
        <ele>262.58</ele>
        <time>2025-03-07T15:39:48Z</time>
      </trkpt>
      <trkpt lat="44.39526" lon="1.10741">
        <ele>260.65</ele>
        <time>2025-03-07T15:40:07Z</time>
      </trkpt>
      <trkpt lat="44.39532" lon="1.1077">
        <ele>259.69</ele>
        <time>2025-03-07T15:40:25Z</time>
      </trkpt>
      <trkpt lat="44.39543" lon="1.1079">
        <ele>261.62</ele>
        <time>2025-03-07T15:40:41Z</time>
      </trkpt>
      <trkpt lat="44.39562" lon="1.10796">
        <ele>262.1</ele>
        <time>2025-03-07T15:40:58Z</time>
      </trkpt>
      <trkpt lat="44.39568" lon="1.10796">
        <ele>262.1</ele>
        <time>2025-03-07T15:41:03Z</time>
      </trkpt>
      <trkpt lat="44.39588" lon="1.108">
        <ele>263.06</ele>
        <time>2025-03-07T15:41:21Z</time>
      </trkpt>
      <trkpt lat="44.396" lon="1.10803">
        <ele>263.54</ele>
        <time>2025-03-07T15:41:31Z</time>
      </trkpt>
      <trkpt lat="44.39607" lon="1.10808">
        <ele>264.02</ele>
        <time>2025-03-07T15:41:39Z</time>
      </trkpt>
      <trkpt lat="44.39612" lon="1.10826">
        <ele>264.5</ele>
        <time>2025-03-07T15:41:54Z</time>
      </trkpt>
      <trkpt lat="44.39614" lon="1.10831">
        <ele>264.5</ele>
        <time>2025-03-07T15:42:10Z</time>
      </trkpt>
      <trkpt lat="44.39615" lon="1.10833">
        <ele>263.06</ele>
        <time>2025-03-07T15:42:14Z</time>
      </trkpt>
      <trkpt lat="44.39615" lon="1.10843">
        <ele>263.06</ele>
        <time>2025-03-07T15:42:28Z</time>
      </trkpt>
      <trkpt lat="44.3962" lon="1.10852">
        <ele>263.06</ele>
        <time>2025-03-07T15:42:44Z</time>
      </trkpt>
      <trkpt lat="44.39624" lon="1.10853">
        <ele>262.58</ele>
        <time>2025-03-07T15:42:57Z</time>
      </trkpt>
      <trkpt lat="44.39623" lon="1.10867">
        <ele>263.54</ele>
        <time>2025-03-07T15:43:09Z</time>
      </trkpt>
      <trkpt lat="44.39628" lon="1.1088">
        <ele>263.54</ele>
        <time>2025-03-07T15:43:21Z</time>
      </trkpt>
      <trkpt lat="44.39636" lon="1.10906">
        <ele>262.1</ele>
        <time>2025-03-07T15:43:38Z</time>
      </trkpt>
      <trkpt lat="44.39638" lon="1.10909">
        <ele>262.1</ele>
        <time>2025-03-07T15:43:40Z</time>
      </trkpt>
      <trkpt lat="44.39644" lon="1.10923">
        <ele>261.62</ele>
        <time>2025-03-07T15:43:50Z</time>
      </trkpt>
      <trkpt lat="44.39653" lon="1.10949">
        <ele>260.17</ele>
        <time>2025-03-07T15:44:07Z</time>
      </trkpt>
      <trkpt lat="44.39664" lon="1.10977">
        <ele>259.21</ele>
        <time>2025-03-07T15:44:25Z</time>
      </trkpt>
      <trkpt lat="44.39668" lon="1.10986">
        <ele>260.65</ele>
        <time>2025-03-07T15:44:31Z</time>
      </trkpt>
      <trkpt lat="44.39674" lon="1.11006">
        <ele>260.65</ele>
        <time>2025-03-07T15:44:47Z</time>
      </trkpt>
      <trkpt lat="44.39676" lon="1.1101">
        <ele>260.65</ele>
        <time>2025-03-07T15:44:51Z</time>
      </trkpt>
      <trkpt lat="44.39681" lon="1.11022">
        <ele>260.17</ele>
        <time>2025-03-07T15:45:04Z</time>
      </trkpt>
      <trkpt lat="44.39686" lon="1.11033">
        <ele>260.17</ele>
        <time>2025-03-07T15:45:15Z</time>
      </trkpt>
      <trkpt lat="44.39695" lon="1.11058">
        <ele>260.17</ele>
        <time>2025-03-07T15:45:31Z</time>
      </trkpt>
      <trkpt lat="44.39701" lon="1.11084">
        <ele>260.17</ele>
        <time>2025-03-07T15:45:48Z</time>
      </trkpt>
      <trkpt lat="44.39705" lon="1.11094">
        <ele>260.17</ele>
        <time>2025-03-07T15:45:55Z</time>
      </trkpt>
      <trkpt lat="44.39712" lon="1.11098">
        <ele>259.21</ele>
        <time>2025-03-07T15:46:01Z</time>
      </trkpt>
      <trkpt lat="44.39723" lon="1.11123">
        <ele>257.77</ele>
        <time>2025-03-07T15:46:19Z</time>
      </trkpt>
      <trkpt lat="44.39736" lon="1.11144">
        <ele>256.81</ele>
        <time>2025-03-07T15:46:36Z</time>
      </trkpt>
      <trkpt lat="44.39746" lon="1.11167">
        <ele>257.77</ele>
        <time>2025-03-07T15:46:52Z</time>
      </trkpt>
      <trkpt lat="44.39747" lon="1.11168">
        <ele>257.77</ele>
        <time>2025-03-07T15:46:53Z</time>
      </trkpt>
      <trkpt lat="44.39761" lon="1.1119">
        <ele>257.29</ele>
        <time>2025-03-07T15:47:11Z</time>
      </trkpt>
      <trkpt lat="44.39773" lon="1.11211">
        <ele>255.85</ele>
        <time>2025-03-07T15:47:27Z</time>
      </trkpt>
      <trkpt lat="44.39777" lon="1.11217">
        <ele>255.85</ele>
        <time>2025-03-07T15:47:32Z</time>
      </trkpt>
      <trkpt lat="44.39786" lon="1.11226">
        <ele>254.89</ele>
        <time>2025-03-07T15:47:48Z</time>
      </trkpt>
      <trkpt lat="44.39789" lon="1.1123">
        <ele>256.81</ele>
        <time>2025-03-07T15:48:10Z</time>
      </trkpt>
      <trkpt lat="44.39798" lon="1.11249">
        <ele>255.85</ele>
        <time>2025-03-07T15:48:25Z</time>
      </trkpt>
      <trkpt lat="44.39809" lon="1.11271">
        <ele>255.37</ele>
        <time>2025-03-07T15:48:42Z</time>
      </trkpt>
      <trkpt lat="44.39819" lon="1.11298">
        <ele>253.93</ele>
        <time>2025-03-07T15:48:59Z</time>
      </trkpt>
      <trkpt lat="44.3983" lon="1.11321">
        <ele>253.93</ele>
        <time>2025-03-07T15:49:18Z</time>
      </trkpt>
      <trkpt lat="44.39831" lon="1.11322">
        <ele>253.44</ele>
        <time>2025-03-07T15:49:34Z</time>
      </trkpt>
      <trkpt lat="44.39836" lon="1.11336">
        <ele>253.44</ele>
        <time>2025-03-07T15:49:52Z</time>
      </trkpt>
      <trkpt lat="44.39842" lon="1.11355">
        <ele>252</ele>
        <time>2025-03-07T15:50:06Z</time>
      </trkpt>
      <trkpt lat="44.39842" lon="1.11382">
        <ele>251.04</ele>
        <time>2025-03-07T15:50:24Z</time>
      </trkpt>
      <trkpt lat="44.39841" lon="1.1141">
        <ele>250.08</ele>
        <time>2025-03-07T15:50:41Z</time>
      </trkpt>
      <trkpt lat="44.39847" lon="1.11434">
        <ele>249.6</ele>
        <time>2025-03-07T15:50:58Z</time>
      </trkpt>
      <trkpt lat="44.3985" lon="1.11439">
        <ele>249.6</ele>
        <time>2025-03-07T15:51:02Z</time>
      </trkpt>
      <trkpt lat="44.39859" lon="1.11469">
        <ele>248.16</ele>
        <time>2025-03-07T15:51:22Z</time>
      </trkpt>
      <trkpt lat="44.39869" lon="1.11494">
        <ele>247.2</ele>
        <time>2025-03-07T15:51:39Z</time>
      </trkpt>
      <trkpt lat="44.39879" lon="1.1152">
        <ele>246.72</ele>
        <time>2025-03-07T15:51:57Z</time>
      </trkpt>
      <trkpt lat="44.39891" lon="1.11537">
        <ele>246.72</ele>
        <time>2025-03-07T15:52:13Z</time>
      </trkpt>
      <trkpt lat="44.39896" lon="1.11535">
        <ele>246.72</ele>
        <time>2025-03-07T15:52:22Z</time>
      </trkpt>
      <trkpt lat="44.39898" lon="1.11532">
        <ele>246.72</ele>
        <time>2025-03-07T15:52:40Z</time>
      </trkpt>
      <trkpt lat="44.39896" lon="1.11532">
        <ele>246.72</ele>
        <time>2025-03-07T15:52:57Z</time>
      </trkpt>
      <trkpt lat="44.39888" lon="1.11549">
        <ele>246.23</ele>
        <time>2025-03-07T15:53:12Z</time>
      </trkpt>
      <trkpt lat="44.39887" lon="1.1155">
        <ele>246.23</ele>
        <time>2025-03-07T15:53:13Z</time>
      </trkpt>
      <trkpt lat="44.3988" lon="1.11564">
        <ele>245.75</ele>
        <time>2025-03-07T15:53:26Z</time>
      </trkpt>
      <trkpt lat="44.39879" lon="1.11578">
        <ele>249.12</ele>
        <time>2025-03-07T15:53:36Z</time>
      </trkpt>
      <trkpt lat="44.39876" lon="1.11586">
        <ele>249.6</ele>
        <time>2025-03-07T15:53:43Z</time>
      </trkpt>
      <trkpt lat="44.39863" lon="1.11611">
        <ele>247.2</ele>
        <time>2025-03-07T15:54:01Z</time>
      </trkpt>
      <trkpt lat="44.39852" lon="1.11636">
        <ele>246.72</ele>
        <time>2025-03-07T15:54:18Z</time>
      </trkpt>
      <trkpt lat="44.39852" lon="1.11638">
        <ele>248.16</ele>
        <time>2025-03-07T15:54:20Z</time>
      </trkpt>
      <trkpt lat="44.3985" lon="1.11643">
        <ele>246.23</ele>
        <time>2025-03-07T15:54:23Z</time>
      </trkpt>
      <trkpt lat="44.39849" lon="1.11647">
        <ele>247.68</ele>
        <time>2025-03-07T15:54:27Z</time>
      </trkpt>
      <trkpt lat="44.39843" lon="1.11674">
        <ele>247.68</ele>
        <time>2025-03-07T15:54:45Z</time>
      </trkpt>
      <trkpt lat="44.39843" lon="1.11684">
        <ele>248.16</ele>
        <time>2025-03-07T15:54:57Z</time>
      </trkpt>
      <trkpt lat="44.39843" lon="1.11701">
        <ele>249.6</ele>
        <time>2025-03-07T15:55:07Z</time>
      </trkpt>
      <trkpt lat="44.39844" lon="1.11711">
        <ele>249.6</ele>
        <time>2025-03-07T15:55:17Z</time>
      </trkpt>
      <trkpt lat="44.39846" lon="1.11728">
        <ele>249.6</ele>
        <time>2025-03-07T15:55:34Z</time>
      </trkpt>
      <trkpt lat="44.39847" lon="1.11736">
        <ele>249.6</ele>
        <time>2025-03-07T15:55:49Z</time>
      </trkpt>
      <trkpt lat="44.39844" lon="1.1175">
        <ele>249.6</ele>
        <time>2025-03-07T15:55:58Z</time>
      </trkpt>
      <trkpt lat="44.39842" lon="1.11753">
        <ele>250.56</ele>
        <time>2025-03-07T15:56:00Z</time>
      </trkpt>
      <trkpt lat="44.39831" lon="1.1178">
        <ele>251.04</ele>
        <time>2025-03-07T15:56:19Z</time>
      </trkpt>
      <trkpt lat="44.39819" lon="1.11804">
        <ele>251.52</ele>
        <time>2025-03-07T15:56:36Z</time>
      </trkpt>
      <trkpt lat="44.39811" lon="1.11825">
        <ele>251.52</ele>
        <time>2025-03-07T15:56:51Z</time>
      </trkpt>
      <trkpt lat="44.39808" lon="1.11844">
        <ele>252</ele>
        <time>2025-03-07T15:57:06Z</time>
      </trkpt>
      <trkpt lat="44.3981" lon="1.11848">
        <ele>252</ele>
        <time>2025-03-07T15:57:09Z</time>
      </trkpt>
      <trkpt lat="44.39818" lon="1.11861">
        <ele>252</ele>
        <time>2025-03-07T15:57:23Z</time>
      </trkpt>
      <trkpt lat="44.39819" lon="1.11862">
        <ele>252</ele>
        <time>2025-03-07T15:57:24Z</time>
      </trkpt>
      <trkpt lat="44.39823" lon="1.11871">
        <ele>252</ele>
        <time>2025-03-07T15:57:38Z</time>
      </trkpt>
      <trkpt lat="44.39822" lon="1.11871">
        <ele>252</ele>
        <time>2025-03-07T15:57:49Z</time>
      </trkpt>
      <trkpt lat="44.3984" lon="1.11891">
        <ele>252.48</ele>
        <time>2025-03-07T15:58:07Z</time>
      </trkpt>
      <trkpt lat="44.39861" lon="1.11918">
        <ele>252.48</ele>
        <time>2025-03-07T15:58:28Z</time>
      </trkpt>
      <trkpt lat="44.39878" lon="1.11937">
        <ele>252.48</ele>
        <time>2025-03-07T15:58:45Z</time>
      </trkpt>
      <trkpt lat="44.39893" lon="1.11958">
        <ele>252.48</ele>
        <time>2025-03-07T15:59:02Z</time>
      </trkpt>
      <trkpt lat="44.39914" lon="1.1198">
        <ele>252.96</ele>
        <time>2025-03-07T15:59:22Z</time>
      </trkpt>
      <trkpt lat="44.39937" lon="1.11989">
        <ele>253.93</ele>
        <time>2025-03-07T15:59:41Z</time>
      </trkpt>
      <trkpt lat="44.39958" lon="1.11994">
        <ele>254.41</ele>
        <time>2025-03-07T15:59:57Z</time>
      </trkpt>
      <trkpt lat="44.39982" lon="1.11999">
        <ele>254.41</ele>
        <time>2025-03-07T16:00:17Z</time>
      </trkpt>
      <trkpt lat="44.4" lon="1.12002">
        <ele>254.89</ele>
        <time>2025-03-07T16:00:31Z</time>
      </trkpt>
      <trkpt lat="44.40001" lon="1.12003">
        <ele>254.89</ele>
        <time>2025-03-07T16:00:32Z</time>
      </trkpt>
      <trkpt lat="44.40011" lon="1.12002">
        <ele>254.89</ele>
        <time>2025-03-07T16:00:43Z</time>
      </trkpt>
      <trkpt lat="44.40016" lon="1.12004">
        <ele>254.89</ele>
        <time>2025-03-07T16:00:54Z</time>
      </trkpt>
      <trkpt lat="44.40029" lon="1.12008">
        <ele>254.41</ele>
        <time>2025-03-07T16:01:04Z</time>
      </trkpt>
      <trkpt lat="44.40035" lon="1.12011">
        <ele>254.41</ele>
        <time>2025-03-07T16:01:11Z</time>
      </trkpt>
      <trkpt lat="44.40035" lon="1.12014">
        <ele>254.41</ele>
        <time>2025-03-07T16:01:13Z</time>
      </trkpt>
      <trkpt lat="44.40028" lon="1.12038">
        <ele>254.41</ele>
        <time>2025-03-07T16:01:28Z</time>
      </trkpt>
      <trkpt lat="44.40023" lon="1.12053">
        <ele>254.41</ele>
        <time>2025-03-07T16:01:42Z</time>
      </trkpt>
      <trkpt lat="44.40022" lon="1.12066">
        <ele>254.41</ele>
        <time>2025-03-07T16:01:55Z</time>
      </trkpt>
      <trkpt lat="44.40019" lon="1.12075">
        <ele>253.93</ele>
        <time>2025-03-07T16:02:01Z</time>
      </trkpt>
      <trkpt lat="44.40013" lon="1.12081">
        <ele>253.44</ele>
        <time>2025-03-07T16:02:12Z</time>
      </trkpt>
      <trkpt lat="44.4001" lon="1.12094">
        <ele>254.89</ele>
        <time>2025-03-07T16:02:21Z</time>
      </trkpt>
      <trkpt lat="44.40008" lon="1.12103">
        <ele>253.44</ele>
        <time>2025-03-07T16:02:28Z</time>
      </trkpt>
      <trkpt lat="44.4" lon="1.12124">
        <ele>254.41</ele>
        <time>2025-03-07T16:02:47Z</time>
      </trkpt>
      <trkpt lat="44.39996" lon="1.1213">
        <ele>255.37</ele>
        <time>2025-03-07T16:03:00Z</time>
      </trkpt>
      <trkpt lat="44.39997" lon="1.1213">
        <ele>253.93</ele>
        <time>2025-03-07T16:03:02Z</time>
      </trkpt>
    </trkseg>
  </trk>
</gpx>